ADDS METAR Data INFO
IDs: Format: Raw Decoded Include TAF

Data at: 1906 UTC 23 Apr 2018

KBBF 231855Z AUTO 04006KT 8SM CLR 21/10 A3008 RMK A01
KBBF 231835Z AUTO 04005KT 7SM CLR 21/10 A3009 RMK A01
KBBF 231815Z AUTO 03005KT 8SM CLR 21/10 A3010 RMK A01
KBBF 231755Z AUTO 05006KT 8SM CLR 21/09 A3010 RMK A01
KBBF 231735Z AUTO 06007KT 8SM CLR 21/09 A3011 RMK A01
KBBF 231715Z AUTO 06006KT 8SM CLR 22/10 A3011 RMK A01
KBBF 231655Z AUTO 05008KT 7SM CLR 21/10 A3011 RMK A01
KBBF 231635Z AUTO 06007KT 8SM CLR 22/10 A3011 RMK A01
KBBF 231615Z AUTO 05009KT 8SM CLR 21/10 A3011 RMK A01
KBBF 231555Z AUTO 05011KT 8SM CLR 22/09 A3011 RMK A01
KBBF 231535Z AUTO 06008KT 7SM CLR 22/10 A3011 RMK A01
KBBF 231515Z AUTO 07010KT 8SM CLR 22/10 A3010 RMK A01
KBBF 231455Z AUTO 07009KT 10SM CLR 21/10 A3010 RMK A01
KBBF 231435Z AUTO 05010KT 8SM CLR 21/10 A3010 RMK A01
KBBF 231415Z AUTO 06011KT 7SM CLR 21/11 A3009 RMK A01
KBBF 231355Z AUTO 05011KT 8SM CLR 21/10 A3010 RMK A01
KBBF 231335Z AUTO 06009KT 7SM CLR 21/10 A3010 RMK A01
KBBF 231315Z AUTO 07010KT 7SM CLR 21/11 A3009 RMK A01
KBBF 231255Z AUTO 06010KT 8SM CLR 21/11 A3009 RMK A01
KBBF 231235Z AUTO 06012KT 7SM CLR 21/11 A3008 RMK A01
KBBF 231215Z AUTO 06012KT 7SM CLR 21/11 A3007 RMK A01
KBBF 231155Z AUTO 06014KT 7SM CLR 21/11 A3006 RMK A01
KBBF 231135Z AUTO 06013KT 7SM CLR 21/11 A3005 RMK A01
KBBF 231115Z AUTO 07014KT 7SM CLR 21/11 A3004 RMK A01
KBBF 231055Z AUTO 06013KT 7SM CLR 21/11 A3004 RMK A01
KBBF 231035Z AUTO 07012KT 7SM CLR 21/11 A3003 RMK A01
KBBF 231015Z AUTO 06015KT 7SM CLR 21/10 A3003 RMK A01
KBBF 230955Z AUTO 06015KT 7SM CLR 21/12 A3002 RMK A01
KBBF 230935Z AUTO 05015KT 7SM CLR 21/12 A3002 RMK A01
KBBF 230915Z AUTO 05016KT 7SM CLR 21/13 A3001 RMK A01
KBBF 230855Z AUTO 05017KT 6SM HZ CLR 21/11 A3000 RMK A01
KBBF 230835Z AUTO 05017KT 7SM CLR 21/12 A3000 RMK A01
KBBF 230815Z AUTO 05016KT 7SM CLR 21/13 A3001 RMK A01
KBBF 230755Z AUTO 05013KT 6SM HZ CLR 21/13 A3001 RMK A01
KBBF 230735Z AUTO 06013KT 7SM CLR 21/13 A3002 RMK A01
KBBF 230715Z AUTO 06012KT 7SM CLR 21/13 A3003 RMK A01
KBBF 230655Z AUTO 07011KT 7SM CLR 21/13 A3003 RMK A01
KBBF 230635Z AUTO 07011KT 7SM CLR 21/12 A3003 RMK A01
KBBF 230615Z AUTO 07011KT 7SM CLR 21/12 A3004 RMK A01
KBBF 230555Z AUTO 07011KT 7SM CLR 21/13 A3003 RMK A01
KBBF 230535Z AUTO 05013KT 7SM CLR 21/12 A3004 RMK A01
KBBF 230515Z AUTO 04014KT 7SM CLR 21/13 A3004 RMK A01
KBBF 230455Z AUTO 05016KT 7SM CLR 21/12 A3003 RMK A01
KBBF 230435Z AUTO 04017KT 7SM CLR 21/12 A3002 RMK A01
KBBF 230415Z AUTO 04014KT 6SM HZ CLR 22/13 A3003 RMK A01
KBBF 230355Z AUTO 03015KT 6SM HZ CLR 22/13 A3002 RMK A01
KBBF 230335Z AUTO 03017KT 6SM HZ CLR 22/13 A3003 RMK A01
KBBF 230315Z AUTO 03020KT 6SM HZ CLR 22/13 A3003 RMK A01
KBBF 230255Z AUTO 03019KT 6SM HZ CLR 22/13 A3002 RMK A01
KBBF 230235Z AUTO 03017KT 6SM HZ CLR 22/14 A3001 RMK A01
KBBF 230215Z AUTO 03015KT 6SM HZ CLR 22/14 A3001 RMK A01
KBBF 230155Z AUTO 03015KT 6SM HZ CLR 22/14 A3001 RMK A01
KBBF 230135Z AUTO 05009KT 6SM HZ CLR 22/14 A3001 RMK A01
KBBF 230115Z AUTO 04009KT 6SM HZ CLR 22/14 A3000 RMK A01
KBBF 230055Z AUTO 04011KT 6SM HZ CLR 22/13 A2999 RMK A01
KBBF 230035Z AUTO 04010KT 6SM HZ CLR 22/14 A2998 RMK A01
KBBF 230015Z AUTO 04012KT 6SM HZ CLR 22/14 A2998 RMK A01
KBBF 222355Z AUTO 04012KT 6SM HZ CLR 22/14 A2998 RMK A01
KBBF 222335Z AUTO 04013KT 6SM HZ CLR 22/14 A2997 RMK A01
KBBF 222315Z AUTO 04013KT 6SM HZ CLR 22/14 A2997 RMK A01
KBBF 222255Z AUTO 04012KT 6SM HZ CLR 22/14 A2997 RMK A01
KBBF 222235Z AUTO 03014KT 6SM HZ CLR 22/14 A2997 RMK A01
KBBF 222215Z AUTO 03013KT 6SM HZ CLR 22/13 A2997 RMK A01
KBBF 222155Z AUTO 03016KT 6SM HZ CLR 22/14 A2997 RMK A01
KBBF 222135Z AUTO 03018KT 5SM HZ CLR 21/14 A2996 RMK A01
KBBF 222115Z AUTO 03020KT 5SM HZ CLR 21/14 A2997 RMK A01
KBBF 222055Z AUTO 02021KT 6SM HZ CLR 21/14 A2997 RMK A01
KBBF 222035Z AUTO 02021KT 5SM HZ CLR 21/14 A2998 RMK A01
KBBF 222015Z AUTO 02022KT 5SM HZ CLR 20/14 A2999 RMK A01
KBBF 221955Z AUTO 02023KT 5SM HZ CLR 20/14 A2999 RMK A01
KBBF 221935Z AUTO 01024KT 5SM HZ CLR 20/13 A3000 RMK A01
KBBF 221915Z AUTO 01026KT 5SM HZ CLR 19/13 A3000 RMK A01
KBBF 221855Z AUTO 01026KT 5SM HZ CLR 19/14 A3001 RMK A01
KBBF 221835Z AUTO 01025KT 5SM HZ CLR 19/14 A3002 RMK A01
KBBF 221815Z AUTO 01022KT 5SM HZ CLR 19/14 A3002 RMK A01
KBBF 221755Z AUTO 01021KT 4SM HZ CLR 19/14 A3003 RMK A01
KBBF 221735Z AUTO 01020KT 4SM HZ CLR 19/15 A3004 RMK A01
KBBF 221715Z AUTO 01018KT 4SM HZ SCT014 19/15 A3004 RMK A01
KBBF 221655Z AUTO 01016KT 4SM HZ BKN014 19/15 A3004 RMK A01
KBBF 221635Z AUTO 01017G23KT 4SM HZ OVC014 19/15 A3004 RMK A01
KBBF 221615Z AUTO 01018KT 4SM HZ BKN015 19/15 A3004 RMK A01
KBBF 221555Z AUTO 02018KT 4SM HZ BKN014 19/15 A3004 RMK A01
KBBF 221535Z AUTO 01017KT 3SM HZ OVC013 19/16 A3004 RMK A01
KBBF 221515Z AUTO 01017KT 2 1/2SM HZ BKN010 OVC013 19/16 A3004 RMK A01
KBBF 221455Z AUTO 36017KT 2SM HZ BKN009 OVC014 19/17 A3004 RMK A01
KBBF 221435Z AUTO 36017KT 2 1/2SM HZ OVC009 19/17 A3003 RMK A01
KBBF 221415Z AUTO 01016KT 3SM HZ BKN009 OVC014 20/17 A3003 RMK A01
KBBF 221355Z AUTO 36019KT 3SM HZ FEW009 OVC014 20/18 A3003 RMK A01
KBBF 221335Z AUTO 36020KT 3SM HZ FEW008 OVC015 21/18 A3002 RMK A01
KBBF 221315Z AUTO 01020KT 3SM HZ OVC017 21/18 A3002 RMK A01
KBBF 221255Z AUTO 01021KT 4SM HZ BKN017 OVC021 21/19 A3001 RMK A01
KBBF 221235Z AUTO 36015KT 4SM HZ SCT010 OVC018 22/19 A3000 RMK A01
KBBF 221215Z AUTO 33010KT 4SM HZ OVC010 22/19 A2999 RMK A01
KBBF 221155Z AUTO 33011KT 5SM HZ BKN011 BKN018 BKN022 22/18 A2999 RMK A01
KBBF 221135Z AUTO 31012KT 5SM HZ FEW009 SCT021 SCT029 21/19 A2997 RMK A01
KBBF 221115Z AUTO 30016KT 2SM BR FEW004 SCT012 BKN022 22/20 A2996 RMK A01
KBBF 221055Z AUTO 27014KT 2SM BR FEW003 SCT016 OVC022 23/21 A2996 RMK A01
KBBF 221035Z AUTO 27011KT 1 3/4SM BR SCT008 BKN016 OVC020 23/21 A2995 RMK A01
KBBF 221015Z AUTO 26014KT 2SM BR BKN007 OVC013 23/21 A2995 RMK A01
KBBF 220955Z AUTO 27015KT 1 1/4SM BR OVC006 22/21 A2994 RMK A01
KBBF 220935Z AUTO 26011KT 1SM BR OVC004 22/21 A2993 RMK A01
KBBF 220915Z AUTO 26011KT 1 1/4SM BR OVC003 22/21 A2993 RMK A01
KBBF 220855Z AUTO 25011KT 1 1/4SM BR OVC003 22/21 A2992 RMK A01
KBBF 220835Z AUTO 24015KT 1 3/4SM BR BKN003 22/21 A2992 RMK A01
KBBF 220815Z AUTO 24015KT 1 3/4SM BR BKN003 23/21 A2992 RMK A01
KBBF 220755Z AUTO 24014KT 1 3/4SM BR SCT003 SCT047 23/21 A2992 RMK A01
KBBF 220735Z AUTO 23014KT 2SM BR FEW010 SCT047 23/21 A2992 RMK A01
KBBF 220715Z AUTO 23013KT 2SM BR FEW010 SCT045 SCT055 23/21 A2993 RMK A01
KBBF 220655Z AUTO 22015KT 2SM BR SCT011 BKN044 BKN050 23/21 A2993 RMK A01
KBBF 220635Z AUTO 23014KT 2SM BR SCT011 OVC050 23/21 A2993 RMK A01
KBBF 220615Z AUTO 22016KT 2SM BR BKN050 BKN065 23/21 A2992 RMK A01
KBBF 220555Z AUTO 21019KT 2SM BR FEW050 FEW060 FEW070 23/21 A2991 RMK A01
KBBF 220535Z AUTO 21020KT 2SM BR BKN050 BKN065 OVC075 23/21 A2991 RMK A01
KBBF 220515Z AUTO 21018KT 2SM BR BKN055 BKN060 OVC075 23/21 A2992 RMK A01
KBBF 220455Z AUTO 20019KT 2SM BR OVC050 23/21 A2991 RMK A01
KBBF 220435Z AUTO 20019KT 2SM BR OVC055 23/21 A2991 RMK A01
KBBF 220415Z AUTO 19017KT 2SM BR BKN055 OVC065 23/21 A2991 RMK A01
KBBF 220355Z AUTO 19018KT 2SM BR BKN055 BKN065 OVC075 23/21 A2991 RMK A01
KBBF 220335Z AUTO 18016KT 2SM BR BKN055 OVC070 23/21 A2991 RMK A01
KBBF 220315Z AUTO 18017KT 2SM BR BKN060 OVC070 23/21 A2990 RMK A01
KBBF 220255Z AUTO 17018KT 2SM BR OVC060 23/21 A2990 RMK A01
KBBF 220235Z AUTO 17019KT 2SM BR BKN060 OVC070 23/21 A2990 RMK A01
KBBF 220215Z AUTO 17019KT 2SM BR OVC070 23/21 A2990 RMK A01
KBBF 220155Z AUTO 17020KT 2SM HZ BKN070 OVC090 23/21 A2989 RMK A01
KBBF 220135Z AUTO 17020KT 2SM HZ OVC090 23/21 A2988 RMK A01
KBBF 220115Z AUTO 17021KT 2SM HZ OVC090 23/21 A2988 RMK A01
KBBF 220055Z AUTO 17022KT 2SM HZ OVC090 23/21 A2987 RMK A01
KBBF 220035Z AUTO 16023KT 2SM HZ OVC085 23/21 A2987 RMK A01
KBBF 220015Z AUTO 16021KT 2SM HZ SCT070 OVC085 23/20 A2987 RMK A01
KBBF 212355Z AUTO 16021KT 2 1/2SM HZ BKN060 OVC075 23/20 A2988 RMK A01
KBBF 212335Z AUTO 16021KT 2 1/2SM HZ FEW050 SCT065 BKN075 23/20 A2988 RMK A01
KBBF 212315Z AUTO 16021KT 2 1/2SM HZ FEW049 SCT080 23/20 A2988 RMK A01
KBBF 212255Z AUTO 16021KT 2 1/2SM HZ FEW055 SCT085 23/20 A2987 RMK A01
KBBF 212235Z AUTO 16020KT 2 1/2SM HZ FEW060 23/20 A2988 RMK A01
KBBF 212215Z AUTO 16021KT 2 1/2SM HZ CLR 23/20 A2988 RMK A01
KBBF 212155Z AUTO 16020KT 2 1/2SM HZ CLR 23/20 A2989 RMK A01
KBBF 212135Z AUTO 15022KT 2 1/2SM HZ FEW080 FEW090 23/20 A2990 RMK A01
KBBF 212115Z AUTO 15021KT 2 1/2SM HZ SCT080 23/20 A2990 RMK A01
KBBF 212055Z AUTO 16023KT 3SM HZ SCT080 23/20 A2990 RMK A01
KBBF 212035Z AUTO 15023KT 3SM HZ BKN085 23/20 A2991 RMK A01
KBBF 212015Z AUTO 15025KT 3SM HZ BKN080 23/20 A2990 RMK A01
KBBF 211955Z AUTO 16023KT 3SM HZ BKN080 23/20 A2992 RMK A01
KBBF 211935Z AUTO 16022KT 3SM HZ FEW046 FEW055 BKN080 23/20 A2993 RMK A01
KBBF 211915Z AUTO 17020KT 2 1/2SM HZ BKN046 BKN055 23/20 A2994 RMK A01
KBBF 211855Z AUTO 17019KT 3SM HZ BKN044 23/20 A2996 RMK A01
KBBF 211835Z AUTO 17021KT 3SM HZ BKN040 23/20 A2996 RMK A01
KBBF 211815Z AUTO 17022KT 3SM HZ BKN038 23/20 A2996 RMK A01
KBBF 211755Z AUTO 16020KT 3SM HZ FEW042 23/20 A2996 RMK A01
KBBF 211735Z AUTO 16023KT 3SM HZ FEW046 23/20 A2995 RMK A01
KBBF 211715Z AUTO 16019KT 3SM HZ FEW046 23/20 A2996 RMK A01
KBBF 211655Z AUTO 16021KT 3SM HZ CLR 23/20 A2996 RMK A01
KBBF 211635Z AUTO 16021KT 3SM HZ CLR 23/20 A2997 RMK A01
KBBF 211615Z AUTO 16020KT 3SM HZ CLR 23/20 A2998 RMK A01
KBBF 211555Z AUTO 16016KT 2 1/2SM HZ CLR 23/20 A2998 RMK A01
KBBF 211535Z AUTO 16019KT 2 1/2SM HZ FEW034 FEW042 SCT055 23/20 A2998 RMK A01
KBBF 211515Z AUTO 18014KT 2 1/2SM HZ FEW021 SCT027 BKN035 23/20 A3001 RMK A01
KBBF 211455Z AUTO 19014KT 3SM HZ FEW020 SCT027 BKN037 23/20 A3002 RMK A01
KBBF 211435Z AUTO 18014KT 3SM HZ SCT019 BKN026 BKN036 23/20 A3002 RMK A01
KBBF 211415Z AUTO 18014KT 3SM HZ SCT019 BKN024 OVC031 23/20 A3002 RMK A01
KBBF 211355Z AUTO 17015KT 4SM HZ SCT019 BKN025 OVC042 23/20 A3000 RMK A01
KBBF 211335Z AUTO 17017KT 3SM HZ FEW019 FEW024 BKN035 23/19 A2998 RMK A01
KBBF 211315Z AUTO 17016KT 3SM HZ FEW024 BKN032 BKN038 23/19 A2997 RMK A01
KBBF 211255Z AUTO 17018KT 3SM HZ FEW035 23/19 A2996 RMK A01
KBBF 211235Z AUTO 17018KT 3SM HZ CLR 23/19 A2996 RMK A01
KBBF 211215Z AUTO 17017KT 3SM HZ CLR 23/19 A2995 RMK A01
KBBF 211155Z AUTO 17017KT 3SM HZ CLR 23/19 A2994 RMK A01
KBBF 211135Z AUTO 18/88000019KT 3SM HZ FEW032 FEW041 FEW120 23/19 A2993 RMK A01
KBBF 211115Z AUTO 17021KT 3SM HZ SCT036 SCT042 23/19 A2993 RMK A01
KBBF 211055Z AUTO 16017KT 3SM HZ SCT038 SCT043 23/19 A2993 RMK A01
KBBF 211035Z AUTO 17018KT 4SM HZ FEW029 BKN040 23/19 A2993 RMK A01
KBBF 211015Z AUTO 17018KT 4SM HZ SCT034 BKN041 23/19 A2993 RMK A01
KBBF 210955Z AUTO 17018KT 4SM HZ SCT032 23/18 A2994 RMK A01
KBBF 210935Z AUTO 17018KT 4SM HZ FEW031 SCT038 23/18 A2994 RMK A01
KBBF 210915Z AUTO 17022KT 4SM HZ FEW020 SCT031 BKN038 23/18 A2994 RMK A01
KBBF 210855Z AUTO 17018KT 4SM HZ FEW021 SCT027 SCT033 23/19 A2995 RMK A01
KBBF 210835Z AUTO 17017KT 4SM HZ FEW026 FEW032 23/19 A2995 RMK A01
KBBF 210815Z AUTO 17017KT 4SM HZ FEW023 SCT030 23/19 A2996 RMK A01
KBBF 210755Z AUTO 17016KT 5SM HZ SCT021 BKN028 BKN042 23/19 A2997 RMK A01
KBBF 210735Z AUTO 16017KT 5SM HZ BKN021 BKN026 OVC037 23/19 A2998 RMK A01
KBBF 210715Z AUTO 16016KT 5SM HZ SCT020 BKN026 BKN036 23/19 A2998 RMK A01
KBBF 210655Z AUTO 16017KT 5SM HZ SCT021 BKN026 BKN031 23/19 A2999 RMK A01
KBBF 210635Z AUTO 16014KT 4SM HZ SCT020 23/19 A3000 RMK A01
KBBF 210615Z AUTO 18/83333319KT 4SM HZ FEW034 FEW041 23/19 A3000 RMK A01
KBBF 210555Z AUTO 16018KT 4SM HZ FEW018 FEW024 BKN035 23/19 A3001 RMK A01
KBBF 210535Z AUTO 15017KT 3SM HZ FEW018 SCT024 BKN036 23/19 A3003 RMK A01
KBBF 210515Z AUTO 15016KT 4SM HZ SCT020 BKN025 BKN032 23/19 A3003 RMK A01
KBBF 210455Z AUTO 15019KT 3SM HZ FEW019 SCT034 BKN041 23/19 A3004 RMK A01
KBBF 210435Z AUTO 15015KT 4SM HZ FEW031 BKN039 OVC044 23/19 A3005 RMK A01
KBBF 210415Z AUTO 15015KT 4SM HZ FEW020 BKN035 BKN041 22/19 A3005 RMK A01
KBBF 210355Z AUTO 15018KT 4SM HZ FEW017 SCT022 OVC035 22/19 A3004 RMK A01
KBBF 210335Z AUTO 15014G21KT 4SM HZ SCT017 BKN021 OVC035 22/19 A3006 RMK A01
KBBF 210315Z AUTO 15016KT 4SM HZ SCT018 BKN023 OVC028 22/18 A3005 RMK A01
KBBF 210255Z AUTO 14018G24KT 4SM HZ SCT018 BKN024 OVC028 22/18 A3004 RMK A01
KBBF 210235Z AUTO 15018KT 6SM HZ SCT018 OVC025 22/18 A3004 RMK A01
KBBF 210215Z AUTO 14015KT 120V180 6SM HZ BKN020 OVC025 22/18 A3004 RMK A01
KBBF 210155Z AUTO 14014KT 6SM HZ OVC022 22/18 A3004 RMK A01
KBBF 210135Z AUTO 14010G17KT 7SM BKN021 OVC026 23/18 A3005 RMK A01
KBBF 210115Z AUTO 13010KT 7SM BKN020 OVC025 23/18 A3005 RMK A01
KBBF 210055Z AUTO 13010G15KT 080V150 7SM OVC021 23/17 A3005 RMK A01
KBBF 210035Z AUTO 12008G17KT 070V160 7SM OVC022 22/17 A3006 RMK A01
KBBF 210015Z AUTO 11011G17KT 8SM OVC019 22/17 A3007 RMK A01
KBBF 202355Z AUTO 11011G18KT 7SM BKN020 22/17 A3008 RMK A01
KBBF 202335Z AUTO 11014G19KT 8SM BKN020 22/17 A3008 RMK A01
KBBF 202315Z AUTO 11013G20KT 8SM SCT019 21/16 A3007 RMK A01
KBBF 202255Z AUTO 11014G21KT 8SM FEW020 22/16 A3007 RMK A01
KBBF 202235Z AUTO 11015G21KT 8SM SCT020 21/16 A3007 RMK A01
KBBF 202215Z AUTO 16/87500017G22KT 8SM CLR 21/16 A3007 RMK A01
KBBF 202155Z AUTO 11015G22KT 8SM CLR 21/16 A3007 RMK A01
KBBF 202135Z AUTO 11018G24KT 8SM CLR 21/16 A3007 RMK A01
KBBF 202115Z AUTO 11019KT 9SM CLR 21/15 A3007 RMK A01
KBBF 202055Z AUTO 11017KT 9SM CLR 21/15 A3010 RMK A01
KBBF 202035Z AUTO 11016G22KT 9SM FEW025 21/16 A3010 RMK A01
KBBF 202015Z AUTO 11013G23KT 8SM SCT025 21/15 A3012 RMK A01
KBBF 201955Z AUTO 11018KT 9SM SCT023 SCT028 21/15 A3013 RMK A01
KBBF 201935Z AUTO 10016G21KT 9SM FEW020 SCT026 21/15 A3014 RMK A01
KBBF 201915Z AUTO 10014G21KT 8SM FEW025 21/15 A3015 RMK A01
KBBF 201855Z AUTO 11016G21KT 9SM SCT025 21/15 A3015 RMK A01
KBBF 201835Z AUTO 11015KT 9SM FEW023 21/15 A3016 RMK A01
KBBF 201815Z AUTO 11013G23KT 8SM CLR 21/15 A3017 RMK A01
KBBF 201755Z AUTO 10016G25KT 9SM CLR 21/14 A3017 RMK A01
KBBF 201735Z AUTO 11019KT 9SM CLR 21/14 A3018 RMK A01
KBBF 201715Z AUTO 11019KT 9SM FEW026 21/14 A3019 RMK A01
KBBF 201655Z AUTO 10014G21KT 9SM FEW026 21/14 A3020 RMK A01
KBBF 201635Z AUTO 10017G22KT 9SM FEW028 21/14 A3021 RMK A01
KBBF 201615Z AUTO 10014G22KT 9SM FEW028 21/14 A3021 RMK A01
KBBF 201555Z AUTO 10015G22KT 9SM CLR 21/14 A3020 RMK A01
KBBF 201535Z AUTO 12015G22KT 9SM CLR 21/14 A3020 RMK A01
KBBF 201515Z AUTO 11019KT 9SM CLR 21/14 A3019 RMK A01
KBBF 201455Z AUTO 11015G22KT 9SM CLR 21/14 A3018 RMK A01
KBBF 201435Z AUTO 11015G21KT 9SM FEW038 FEW050 21/14 A3019 RMK A01
KBBF 201415Z AUTO 11016G21KT 10SM FEW030 SCT038 BKN050 21/14 A3019 RMK A01
KBBF 201355Z AUTO 10015KT 10SM SCT030 BKN038 OVC050 21/14 A3019 RMK A01
KBBF 201335Z AUTO 10014KT 10SM SCT031 BKN050 22/14 A3019 RMK A01
KBBF 201315Z AUTO 11011G17KT 10SM FEW033 SCT050 22/14 A3019 RMK A01
KBBF 201255Z AUTO 11012G18KT 10SM CLR 22/13 A3018 RMK A01
KBBF 201235Z AUTO 11014KT 10SM CLR 21/14 A3018 RMK A01
KBBF 201215Z AUTO 10012G18KT 10SM CLR 21/14 A3017 RMK A01
KBBF 201155Z AUTO 10011G19KT 10SM SCT049 21/13 A3016 RMK A01
KBBF 201135Z AUTO 09017KT 10SM OVC049 21/13 A3015 RMK A01
KBBF 201115Z AUTO 09017KT 10SM OVC050 21/13 A3015 RMK A01
KBBF 201055Z AUTO 09017KT 10SM OVC049 21/13 A3013 RMK A01
KBBF 201035Z AUTO 09016KT 10SM OVC049 21/13 A3014 RMK A01
KBBF 201015Z AUTO 09017KT 10SM OVC049 21/13 A3013 RMK A01
KBBF 200955Z AUTO 10016KT 10SM OVC048 21/12 A3013 RMK A01
KBBF 200935Z AUTO 10016KT 10SM OVC048 21/12 A3012 RMK A01
KBBF 200915Z AUTO 10012G19KT 10SM OVC047 21/12 A3014 RMK A01
KBBF 200855Z AUTO 09017KT 10SM OVC046 21/12 A3013 RMK A01
KBBF 200835Z AUTO 09016KT 10SM OVC045 21/10 A3014 RMK A01
KBBF 200815Z AUTO 10015KT 10SM OVC045 21/11 A3014 RMK A01
KBBF 200755Z AUTO 10013G18KT 10SM OVC048 21/11 A3014 RMK A01
KBBF 200735Z AUTO 09017KT 10SM BKN047 OVC055 21/11 A3015 RMK A01
KBBF 200715Z AUTO 09017KT 10SM OVC048 21/11 A3016 RMK A01
KBBF 200655Z AUTO 10012KT 10SM FEW043 BKN050 OVC055 21/12 A3016 RMK A01
KBBF 200635Z AUTO 10010G18KT 10SM FEW043 OVC050 21/11 A3015 RMK A01
KBBF 200615Z AUTO 09015KT 10SM BKN050 OVC055 21/12 A3016 RMK A01
KBBF 200555Z AUTO 09014KT 10SM BKN050 OVC055 22/11 A3018 RMK A01
KBBF 200535Z AUTO 09013KT 10SM BKN050 OVC055 22/11 A3018 RMK A01
KBBF 200515Z AUTO 09014KT 10SM BKN050 OVC055 22/11 A3018 RMK A01
KBBF 200455Z AUTO 09014KT 10SM BKN050 OVC055 22/12 A3018 RMK A01
KBBF 200435Z AUTO 10012KT 10SM BKN050 OVC060 22/11 A3019 RMK A01
KBBF 200415Z AUTO 09013KT 10SM BKN050 OVC055 22/10 A3019 RMK A01
KBBF 200355Z AUTO 10010KT 10SM OVC050 22/10 A3019 RMK A01
KBBF 200335Z AUTO 11011KT 10SM OVC050 22/11 A3020 RMK A01
KBBF 200315Z AUTO 11012KT 10SM OVC050 22/10 A3019 RMK A01
KBBF 200255Z AUTO 10010KT 10SM OVC050 22/11 A3019 RMK A01
KBBF 200235Z AUTO 11011KT 10SM OVC050 22/10 A3018 RMK A01
KBBF 200215Z AUTO 10011KT 10SM OVC050 22/10 A3018 RMK A01
KBBF 200155Z AUTO 10009KT 10SM BKN048 OVC055 22/10 A3017 RMK A01
KBBF 200135Z AUTO 10011KT 10SM BKN047 BKN055 22/09 A3017 RMK A01
KBBF 200115Z AUTO 10013KT 10SM FEW050 21/10 A3017 RMK A01
KBBF 200055Z AUTO 09013KT 10SM CLR 21/10 A3017 RMK A01
KBBF 200035Z AUTO 09016KT 10SM CLR 21/09 A3016 RMK A01
KBBF 200015Z AUTO 08015KT 10SM CLR 21/09 A3017 RMK A01
KBBF 192355Z AUTO 09015KT 10SM CLR 21/10 A3017 RMK A01
KBBF 192335Z AUTO 09016KT 10SM CLR 21/10 A3017 RMK A01
KBBF 192315Z AUTO 09015KT 10SM CLR 21/11 A3018 RMK A01
KBBF 192255Z AUTO 09015KT 10SM CLR 21/10 A3018 RMK A01
KBBF 192235Z AUTO 09016KT 10SM CLR 21/10 A3018 RMK A01
KBBF 192215Z AUTO 09016KT 10SM CLR 21/10 A3019 RMK A01
KBBF 192155Z AUTO 09017KT 10SM CLR 21/08 A3019 RMK A01
KBBF 192135Z AUTO 08017KT 10SM CLR 21/08 A3019 RMK A01
KBBF 192115Z AUTO 08019KT 10SM CLR 21/09 A3020 RMK A01
KBBF 192055Z AUTO 08018KT 10SM CLR 21/09 A3021 RMK A01
KBBF 192035Z AUTO 07019KT 10SM FEW047 21/09 A3021 RMK A01
KBBF 192015Z AUTO 07020KT 10SM BKN048 21/09 A3022 RMK A01
KBBF 191955Z AUTO 07019KT 10SM BKN048 21/08 A3023 RMK A01
KBBF 191935Z AUTO 07023KT 10SM FEW047 21/08 A3023 RMK A01
KBBF 191915Z AUTO 07021G27KT 10SM BKN048 22/07 A3023 RMK A01
KBBF 191855Z AUTO 06023KT 10SM BKN047 22/08 A3024 RMK A01
KBBF 191835Z AUTO 07025KT 10SM BKN048 22/07 A3024 RMK A01
KBBF 191815Z AUTO 07023G29KT 10SM OVC047 22/09 A3025 RMK A01
KBBF 191755Z AUTO 07027KT 10SM OVC045 22/08 A3024 RMK A01
KBBF 191735Z AUTO 06027KT 10SM OVC045 22/08 A3024 RMK A01
KBBF 191715Z AUTO 07027KT 10SM OVC045 22/09 A3024 RMK A01
KBBF 191655Z AUTO 07028KT 10SM OVC043 22/10 A3024 RMK A01
KBBF 191635Z AUTO 07030KT 10SM OVC041 22/10 A3024 RMK A01
KBBF 191615Z AUTO 07031KT 10SM OVC036 22/10 A3023 RMK A01
KBBF 191555Z AUTO 07026G34KT BKN035 22/12 A3023 RMK A01
KBBF 191535Z AUTO 07027G33KT 9SM BKN033 22/11 A3022 RMK A01
KBBF 191515Z AUTO 07030G36KT 10SM BKN031 22/11 A3020 RMK A01
KBBF 191455Z AUTO 07028KT 9SM FEW030 22/13 A3020 RMK A01
KBBF 191435Z AUTO 07029KT 9SM FEW031 22/14 A3019 RMK A01
KBBF 191415Z AUTO 06027KT 9SM FEW065 22/14 A3020 RMK A01
KBBF 191355Z AUTO 06023G29KT 9SM SCT024 SCT033 BKN050 22/15 A3019 RMK A01
KBBF 191335Z AUTO 06025KT 9SM FEW011 SCT020 OVC027 21/17 A3019 RMK A01
KBBF 191315Z AUTO 04009KT 5SM BR FEW018 BKN030 BKN038 22/20 A3019 RMK A01
KBBF 191255Z AUTO 03008KT 6SM BR FEW031 BKN041 22/21 A3019 RMK A01
KBBF 191235Z AUTO 03009KT 5SM BR FEW006 BKN040 OVC045 22/21 A3018 RMK A01
KBBF 191215Z AUTO 02009KT 5SM BR BKN038 OVC045 22/21 A3016 RMK A01
KBBF 191155Z AUTO 02006KT 6SM BR BKN037 OVC044 22/20 A3015 RMK A01
KBBF 191135Z AUTO 02005KT 6SM BR OVC035 22/20 A3014 RMK A01
KBBF 191115Z AUTO 01004KT 5SM BR OVC035 22/20 A3014 RMK A01
KBBF 191055Z AUTO 01004KT 7SM OVC036 22/20 A3013 RMK A01
KBBF 191035Z AUTO 35004KT 7SM BKN036 BKN042 OVC060 22/20 A3013 RMK A01
KBBF 191015Z AUTO 36004KT 7SM BKN041 BKN049 OVC060 22/20 A3012 RMK A01
KBBF 190955Z AUTO 36004KT 7SM BKN034 BKN043 OVC049 22/20 A3012 RMK A01
KBBF 190935Z AUTO 35004KT 7SM BKN035 OVC044 22/20 A3011 RMK A01
KBBF 190915Z AUTO 00000KT 7SM BKN040 OVC046 22/20 A3010 RMK A01
KBBF 190855Z AUTO 00000KT 8SM OVC040 22/20 A3009 RMK A01
KBBF 190835Z AUTO 00000KT 6SM BR OVC039 22/20 A3009 RMK A01
KBBF 190815Z AUTO 00000KT 7SM OVC041 22/20 A3009 RMK A01
KBBF 190755Z AUTO 00000KT 8SM BKN043 OVC049 22/20 A3009 RMK A01
KBBF 190735Z AUTO 00000KT 7SM BKN045 BKN055 22/20 A3009 RMK A01
KBBF 190715Z AUTO 20003KT 7SM BKN047 BKN055 22/20 A3009 RMK A01
KBBF 190655Z AUTO 19004KT 8SM SCT041 BKN048 22/20 A3009 RMK A01
KBBF 190635Z AUTO 18004KT 8SM SCT045 22/20 A3009 RMK A01
KBBF 190615Z AUTO 18006KT 7SM CLR 22/20 A3008 RMK A01
KBBF 190555Z AUTO 17006KT 7SM SCT045 22/20 A3008 RMK A01
KBBF 190535Z AUTO 17007KT 7SM BKN044 OVC050 23/20 A3008 RMK A01
KBBF 190515Z AUTO 17007KT 8SM OVC042 23/20 A3008 RMK A01
KBBF 190455Z AUTO 16006KT 8SM OVC041 23/20 A3009 RMK A01
KBBF 190435Z AUTO VRB04KT 9SM BKN041 OVC048 23/20 A3008 RMK A01
KBBF 190415Z AUTO 15006KT 8SM SCT045 23/20 A3008 RMK A01
KBBF 190355Z AUTO 00000KT 9SM CLR 23/20 A3008 RMK A01
KBBF 190335Z AUTO 00000KT 8SM CLR 23/20 A3008 RMK A01
KBBF 190315Z AUTO 00000KT 9SM CLR 23/20 A3007 RMK A01
KBBF 190255Z AUTO VRB03KT 9SM CLR 23/20 A3006 RMK A01
KBBF 190235Z AUTO VRB06KT 9SM CLR 23/20 A3005 RMK A01
KBBF 190215Z AUTO VRB06KT 9SM CLR 23/20 A3004 RMK A01
KBBF 190155Z AUTO 11008KT 9SM CLR 23/20 A3004 RMK A01
KBBF 190135Z AUTO 10007KT 9SM CLR 23/19 A3004 RMK A01
KBBF 190115Z AUTO 10007KT 9SM CLR 23/19 A3004 RMK A01
KBBF 190055Z AUTO 11007KT 090V150 9SM CLR 23/19 A3003 RMK A01
KBBF 190035Z AUTO 10007KT 9SM CLR 23/19 A3003 RMK A01
KBBF 190015Z AUTO 10006KT 9SM CLR 23/19 A3003 RMK A01
KBBF 182355Z AUTO VRB03KT 10SM CLR 24/19 A3002 RMK A01
KBBF 182335Z AUTO VRB04KT 9SM CLR 24/19 A3002 RMK A01
KBBF 182315Z AUTO VRB04G10KT 8SM CLR 24/20 A3001 RMK A01
KBBF 182255Z AUTO VRB04G11KT 5SM HZ CLR 23/19 A3001 RMK A01
KBBF 182235Z AUTO 17010G16KT 8SM CLR 23/19 A3000 RMK A01
KBBF 182215Z AUTO 17014KT 8SM CLR 23/19 A2999 RMK A01
KBBF 182155Z AUTO 17010KT 9SM SCT044 23/19 A3000 RMK A01
KBBF 182135Z AUTO 16008KT 9SM OVC045 23/19 A3000 RMK A01
KBBF 182115Z AUTO 16009KT 9SM OVC045 23/19 A3001 RMK A01
KBBF 182055Z AUTO 15005KT 9SM OVC044 24/19 A3002 RMK A01
KBBF 182035Z AUTO 00000KT 9SM BKN035 OVC044 24/19 A3003 RMK A01
KBBF 182015Z AUTO 00000KT 8SM BKN035 OVC046 24/19 A3003 RMK A01
KBBF 181955Z AUTO 00000KT 9SM FEW037 OVC046 24/19 A3003 RMK A01
KBBF 181935Z AUTO 00000KT 8SM OVC045 24/19 A3004 RMK A01
KBBF 181915Z AUTO 09003KT 8SM FEW031 OVC041 24/19 A3004 RMK A01
KBBF 181855Z AUTO 00000KT 5SM HZ BKN032 OVC039 24/19 A3004 RMK A01
KBBF 181835Z AUTO 00000KT 5SM HZ OVC032 23/19 A3004 RMK A01
KBBF 181815Z AUTO 00000KT 5SM HZ OVC031 23/19 A3004 RMK A01
KBBF 181755Z AUTO 18007KT 5SM HZ FEW023 OVC030 23/19 A3002 RMK A01
KBBF 181735Z AUTO 19009KT 5SM HZ OVC029 23/19 A3000 RMK A01
KBBF 181715Z AUTO 20010KT 5SM HZ BKN026 BKN030 23/19 A3000 RMK A01
KBBF 181655Z AUTO 19010KT 4SM HZ SCT025 BKN029 23/19 A3000 RMK A01
KBBF 181635Z AUTO 19013KT 5SM HZ CLR 23/19 A2999 RMK A01
KBBF 181615Z AUTO 20012KT 4SM HZ FEW025 23/19 A2999 RMK A01
KBBF 181555Z AUTO 19012KT 4SM HZ FEW027 23/19 A2998 RMK A01
KBBF 181535Z AUTO 20013KT 5SM HZ BKN026 23/18 A2998 RMK A01
KBBF 181515Z AUTO 19015KT 4SM HZ BKN023 BKN028 23/18 A2998 RMK A01
KBBF 181455Z AUTO 20015KT 5SM HZ FEW026 23/18 A2997 RMK A01
KBBF 181435Z AUTO 20017KT 5SM HZ FEW027 23/18 A2996 RMK A01
KBBF 181415Z AUTO 20018KT 4SM HZ SCT027 23/18 A2996 RMK A01
KBBF 181355Z AUTO 20019KT 5SM HZ FEW024 FEW028 23/18 A2996 RMK A01
KBBF 181335Z AUTO 20017KT 5SM HZ SCT024 BKN029 23/18 A2996 RMK A01
KBBF 181315Z AUTO 20017KT 5SM HZ SCT027 23/18 A2995 RMK A01
KBBF 181255Z AUTO 20018KT 5SM HZ FEW027 23/18 A2995 RMK A01
KBBF 181235Z AUTO 20019KT 5SM HZ BKN026 23/17 A2995 RMK A01
KBBF 181215Z AUTO 20021KT 5SM HZ BKN026 23/18 A2993 RMK A01
KBBF 181155Z AUTO 20020KT 5SM HZ OVC026 23/18 A2992 RMK A01
KBBF 181135Z AUTO 19021G26KT 4SM HZ OVC026 23/18 A2991 RMK A01
KBBF 181115Z AUTO 20025KT 5SM HZ OVC026 23/17 A2990 RMK A01
KBBF 181055Z AUTO 19025KT 5SM HZ OVC025 23/17 A2989 RMK A01
KBBF 181035Z AUTO 20025KT 5SM HZ OVC024 22/17 A2989 RMK A01
KBBF 181015Z AUTO 20027KT 5SM HZ OVC024 23/17 A2988 RMK A01
KBBF 180955Z AUTO 20027KT 5SM HZ OVC023 23/17 A2987 RMK A01
KBBF 180935Z AUTO 19028KT 5SM HZ OVC024 22/17 A2987 RMK A01
KBBF 180915Z AUTO 20028KT 5SM HZ OVC024 23/17 A2987 RMK A01
KBBF 180855Z AUTO 20024G33KT 5SM HZ OVC026 23/17 A2988 RMK A01
KBBF 180835Z AUTO 20026KT 5SM HZ OVC026 23/17 A2989 RMK A01
KBBF 180815Z AUTO 20026G31KT 5SM HZ OVC025 23/17 A2989 RMK A01
KBBF 180755Z AUTO 20027KT 5SM HZ OVC025 22/17 A2990 RMK A01
KBBF 180735Z AUTO 20030KT 5SM HZ OVC023 22/17 A2990 RMK A01
KBBF 180715Z AUTO 20025G33KT 4SM HZ OVC023 23/18 A2990 RMK A01
KBBF 180655Z AUTO 19026G35KT 5SM HZ OVC022 22/17 A2990 RMK A01
KBBF 180635Z AUTO 19028G35KT 5SM HZ OVC021 22/17 A2990 RMK A01
KBBF 180615Z AUTO 18028G33KT 5SM HZ OVC021 22/17 A2991 RMK A01
KBBF 180555Z AUTO 19030KT 5SM HZ OVC022 22/17 A2991 RMK A01
KBBF 180535Z AUTO 19027KT 5SM HZ OVC021 22/17 A2992 RMK A01
KBBF 180515Z AUTO 19029KT 5SM HZ OVC022 22/17 A2992 RMK A01
KBBF 180455Z AUTO 18027KT 6SM HZ OVC022 22/17 A2993 RMK A01
KBBF 180435Z AUTO 18023G29KT 5SM HZ OVC022 22/18 A2994 RMK A01
KBBF 180415Z AUTO 18022KT 5SM HZ OVC022 22/17 A2995 RMK A01
KBBF 180355Z AUTO 18023G29KT 6SM HZ OVC024 23/17 A2995 RMK A01
KBBF 180335Z AUTO 18025KT 5SM HZ OVC024 22/17 A2995 RMK A01
KBBF 180315Z AUTO 18023G29KT 5SM HZ OVC023 22/17 A2995 RMK A01
KBBF 180255Z AUTO 18025KT 6SM HZ OVC025 22/17 A2995 RMK A01
KBBF 180235Z AUTO 18023G28KT 6SM HZ OVC025 23/17 A2995 RMK A01
KBBF 180215Z AUTO 18020G26KT 5SM HZ OVC023 23/18 A2995 RMK A01
KBBF 180155Z AUTO 18023KT 6SM HZ OVC024 23/17 A2994 RMK A01
KBBF 180135Z AUTO 18022KT 6SM HZ OVC023 22/17 A2993 RMK A01
KBBF 180115Z AUTO 18019KT 5SM HZ BKN023 22/18 A2993 RMK A01
KBBF 180055Z AUTO 18021KT 6SM HZ FEW024 23/17 A2993 RMK A01
KBBF 180035Z AUTO 18023KT 6SM HZ CLR 23/17 A2993 RMK A01
KBBF 180015Z AUTO 18022KT 6SM HZ FEW024 23/17 A2993 RMK A01
KBBF 172355Z AUTO 18020KT 6SM HZ FEW025 23/17 A2993 RMK A01
KBBF 172335Z AUTO 18019KT 6SM HZ CLR 23/18 A2994 RMK A01
KBBF 172315Z AUTO 18021KT 6SM HZ FEW025 23/17 A2993 RMK A01
KBBF 172255Z AUTO 18020G25KT 6SM HZ FEW026 23/17 A2993 RMK A01
KBBF 172235Z AUTO 18020KT 6SM HZ FEW026 23/18 A2994 RMK A01
KBBF 172215Z AUTO 18020KT 6SM HZ CLR 23/18 A2995 RMK A01
KBBF 172155Z AUTO 18021KT 6SM HZ CLR 23/17 A2995 RMK A01
KBBF 172135Z AUTO 18020KT 6SM HZ CLR 23/17 A2996 RMK A01
KBBF 172115Z AUTO 18019KT 6SM HZ CLR 23/17 A2996 RMK A01
KBBF 172055Z AUTO 19020KT 6SM HZ CLR 23/17 A2997 RMK A01
KBBF 172035Z AUTO 19019KT 6SM HZ CLR 23/17 A2998 RMK A01
KBBF 172015Z AUTO 19017KT 6SM HZ CLR 23/17 A2999 RMK A01
KBBF 171955Z AUTO 19019KT 6SM HZ CLR 23/17 A2999 RMK A01
KBBF 171935Z AUTO 20021KT 6SM HZ CLR 23/17 A3000 RMK A01
KBBF 171915Z AUTO 20020KT 6SM HZ CLR 23/17 A3002 RMK A01
KBBF 171855Z AUTO 21020KT 6SM HZ CLR 23/17 A3003 RMK A01
KBBF 171835Z AUTO 20021KT 6SM HZ CLR 23/17 A3003 RMK A01
KBBF 171815Z AUTO 20020KT 6SM HZ CLR 23/17 A3003 RMK A01
KBBF 171755Z AUTO 20022KT 7SM CLR 23/16 A3003 RMK A01
KBBF 171735Z AUTO 20021KT 6SM HZ CLR 22/16 A3004 RMK A01
KBBF 171715Z AUTO 20019KT 6SM HZ CLR 22/16 A3005 RMK A01
KBBF 171655Z AUTO 20019KT 6SM HZ CLR 23/16 A3006 RMK A01
KBBF 171635Z AUTO 20019KT 6SM HZ CLR 23/16 A3006 RMK A01
KBBF 171615Z AUTO 20020KT 7SM CLR 22/16 A3006 RMK A01
KBBF 171555Z AUTO 20022KT 7SM CLR 22/16 A3006 RMK A01
KBBF 171535Z AUTO 20020KT 6SM HZ CLR 22/16 A3006 RMK A01
KBBF 171515Z AUTO 20023KT 7SM CLR 22/15 A3006 RMK A01
KBBF 171455Z AUTO 20022KT 7SM CLR 22/15 A3006 RMK A01
KBBF 171435Z AUTO 19025KT 7SM CLR 22/15 A3005 RMK A01
KBBF 171415Z AUTO 20022KT 7SM CLR 22/16 A3005 RMK A01
KBBF 171355Z AUTO 20021KT 7SM CLR 22/16 A3005 RMK A01
KBBF 171335Z AUTO 20022KT 7SM CLR 22/15 A3005 RMK A01
KBBF 171315Z AUTO 20023KT 7SM CLR 22/15 A3004 RMK A01
KBBF 171255Z AUTO 20024KT 7SM CLR 22/15 A3004 RMK A01
KBBF 171235Z AUTO 19023KT 7SM CLR 22/15 A3004 RMK A01
KBBF 171215Z AUTO 20023KT 7SM CLR 22/15 A3003 RMK A01
KBBF 171155Z AUTO 20024KT 7SM CLR 22/16 A3003 RMK A01
KBBF 171135Z AUTO 20024KT 7SM CLR 22/15 A3003 RMK A01
KBBF 171115Z AUTO 20027KT 7SM CLR 22/16 A3003 RMK A01
KBBF 171055Z AUTO 20023G29KT 7SM CLR 22/15 A3004 RMK A01
KBBF 171035Z AUTO 20025KT 7SM CLR 22/16 A3004 RMK A01
KBBF 171015Z AUTO 20027KT 7SM CLR 22/15 A3002 RMK A01
KBBF 170955Z AUTO 20028KT 7SM CLR 22/15 A3003 RMK A01
KBBF 170935Z AUTO 20028KT 8SM CLR 22/15 A3004 RMK A01
KBBF 170915Z AUTO 20027KT 7SM CLR 22/15 A3004 RMK A01
KBBF 170855Z AUTO 20028KT 7SM CLR 22/15 A3005 RMK A01
KBBF 170835Z AUTO 20027KT 7SM CLR 22/15 A3006 RMK A01
KBBF 170815Z AUTO 20029KT 7SM CLR 22/15 A3007 RMK A01
KBBF 170755Z AUTO 20028KT CLR 22/15 A3008 RMK A01
KBBF 170735Z AUTO 20027KT 8SM CLR 22/15 A3008 RMK A01
KBBF 170715Z AUTO 19029KT 8SM FEW028 FEW039 22/15 A3009 RMK A01
KBBF 170655Z AUTO 19029KT 8SM FEW028 FEW039 22/15 A3010 RMK A01
KBBF 170635Z AUTO 19026G31KT 8SM CLR 22/15 A3011 RMK A01
KBBF 170615Z AUTO 19026KT 9SM CLR 22/14 A3012 RMK A01
KBBF 170555Z AUTO 19027KT 8SM FEW028 22/14 A3013 RMK A01
KBBF 170535Z AUTO 19026KT 9SM CLR 22/14 A3014 RMK A01
KBBF 170515Z AUTO 18026KT 9SM CLR 22/14 A3014 RMK A01
KBBF 170455Z AUTO 18026KT 8SM CLR 22/14 A3014 RMK A01
KBBF 170435Z AUTO 19023KT 9SM CLR 22/14 A3014 RMK A01
KBBF 170415Z AUTO 18023KT 9SM CLR 22/14 A3014 RMK A01
KBBF 170355Z AUTO 18025KT 9SM CLR 22/14 A3015 RMK A01
KBBF 170335Z AUTO 18023KT 9SM CLR 22/14 A3015 RMK A01
KBBF 170315Z AUTO 18022KT 9SM CLR 22/14 A3015 RMK A01
KBBF 170255Z AUTO 18023KT 9SM CLR 22/13 A3015 RMK A01
KBBF 170235Z AUTO 18021KT 9SM CLR 22/14 A3015 RMK A01
KBBF 170215Z AUTO 18022KT 9SM CLR 22/13 A3015 RMK A01
KBBF 170155Z AUTO 18022KT 9SM CLR 22/13 A3014 RMK A01
KBBF 170135Z AUTO 18021KT 9SM CLR 22/14 A3014 RMK A01
KBBF 170115Z AUTO 18020KT 9SM CLR 22/13 A3013 RMK A01
KBBF 170055Z AUTO 18019KT 9SM CLR 22/13 A3013 RMK A01
KBBF 170035Z AUTO 17019KT 10SM CLR 22/13 A3013 RMK A01
KBBF 170015Z AUTO 18019KT 9SM CLR 22/13 A3013 RMK A01
KBBF 162355Z AUTO 17018KT 9SM CLR 22/13 A3013 RMK A01
KBBF 162335Z AUTO 18018KT 9SM CLR 22/13 A3014 RMK A01
KBBF 162315Z AUTO 17017KT 9SM CLR 22/12 A3014 RMK A01
KBBF 162255Z AUTO 17017KT 9SM CLR 22/12 A3014 RMK A01
KBBF 162235Z AUTO 17016KT 9SM CLR 22/12 A3015 RMK A01
KBBF 162215Z AUTO 17014KT 9SM CLR 22/12 A3016 RMK A01
KBBF 162155Z AUTO 17016KT 9SM CLR 22/12 A3016 RMK A01
KBBF 162135Z AUTO 18014KT 9SM CLR 22/11 A3017 RMK A01
KBBF 162115Z AUTO 17014KT 9SM CLR 22/12 A3018 RMK A01
KBBF 162055Z AUTO 18013KT 9SM CLR 22/11 A3019 RMK A01
KBBF 162035Z AUTO 18012KT 10SM CLR 22/11 A3021 RMK A01
KBBF 162015Z AUTO 17012KT 9SM CLR 22/11 A3022 RMK A01
KBBF 161955Z AUTO 18012KT 9SM CLR 22/11 A3022 RMK A01
KBBF 161935Z AUTO 17010KT 9SM CLR 22/10 A3023 RMK A01
KBBF 161915Z AUTO 17011KT 9SM CLR 22/11 A3024 RMK A01
KBBF 161855Z AUTO 17011KT 10SM CLR 22/10 A3025 RMK A01
KBBF 161835Z AUTO 17011KT 10SM CLR 22/10 A3026 RMK A01
KBBF 161815Z AUTO 17013KT 9SM CLR 22/10 A3026 RMK A01
KBBF 161755Z AUTO 16011KT 10SM CLR 22/10 A3027 RMK A01
KBBF 161735Z AUTO 16012KT 9SM CLR 22/09 A3027 RMK A01
KBBF 161715Z AUTO 17013KT 10SM CLR 22/09 A3028 RMK A01
KBBF 161655Z AUTO 17012KT 10SM CLR 22/09 A3028 RMK A01
KBBF 161635Z AUTO 17012KT 10SM CLR 22/09 A3028 RMK A01
KBBF 161615Z AUTO 15012KT 10SM CLR 22/09 A3028 RMK A01
KBBF 161555Z AUTO 16014KT 10SM CLR 22/08 A3028 RMK A01
KBBF 161535Z AUTO 15014KT 10SM CLR 22/09 A3028 RMK A01
KBBF 161515Z AUTO 16013KT 10SM CLR 22/09 A3027 RMK A01
KBBF 161455Z AUTO 16014KT 10SM CLR 22/10 A3027 RMK A01
KBBF 161435Z AUTO 15013KT 10SM CLR 21/09 A3027 RMK A01
KBBF 161415Z AUTO 16012KT 10SM CLR 21/10 A3026 RMK A01
KBBF 161355Z AUTO 16012KT 4SM HZ CLR 21/10 A3026 RMK A01
KBBF 161335Z AUTO 17011KT 3SM HZ CLR 21/11 A3026 RMK A01
KBBF 161315Z AUTO 16012KT 3SM HZ CLR 21/11 A3025 RMK A01
KBBF 161255Z AUTO 17012KT 3SM HZ CLR 21/10 A3024 RMK A01
KBBF 161235Z AUTO 17012KT 3SM HZ CLR 21/11 A3024 RMK A01
KBBF 161215Z AUTO 18012KT 3SM HZ CLR 21/11 A3023 RMK A01
KBBF 161155Z AUTO 17011KT 3SM HZ CLR 21/11 A3023 RMK A01
KBBF 161135Z AUTO 16012KT 3SM HZ CLR 21/10 A3023 RMK A01
KBBF 161115Z AUTO 16011KT 3SM HZ CLR 21/10 A3022 RMK A01
KBBF 161055Z AUTO 16011KT 3SM HZ CLR 21/10 A3022 RMK A01
KBBF 161035Z AUTO 16012KT 3SM HZ CLR 21/10 A3022 RMK A01
KBBF 161015Z AUTO 16011KT 3SM HZ CLR 21/10 A3021 RMK A01
KBBF 160955Z AUTO VRB06KT 3SM HZ CLR 21/10 A3021 RMK A01
KBBF 160935Z AUTO VRB08KT 3SM HZ CLR 21/10 A3021 RMK A01
KBBF 160915Z AUTO 14009KT 3SM HZ CLR 21/09 A3020 RMK A01
KBBF 160855Z AUTO 15008KT 3SM HZ CLR 21/09 A3020 RMK A01
KBBF 160835Z AUTO 17010KT 3SM HZ CLR 21/09 A3021 RMK A01
KBBF 160815Z AUTO 17010KT 3SM HZ CLR 21/09 A3021 RMK A01
KBBF 160755Z AUTO 17011KT 3SM HZ CLR 21/09 A3022 RMK A01
KBBF 160735Z AUTO 18011KT 3SM HZ CLR 21/09 A3022 RMK A01
KBBF 160715Z AUTO 18010KT 3SM HZ CLR 21/08 A3023 RMK A01
KBBF 160655Z AUTO 19009KT 3SM HZ CLR 21/07 A3023 RMK A01
KBBF 160635Z AUTO 19009KT 3SM HZ CLR 21/07 A3024 RMK A01
KBBF 160615Z AUTO 18010KT 3SM HZ CLR 21/08 A3024 RMK A01
KBBF 160555Z AUTO 18011KT 3SM HZ CLR 21/08 A3024 RMK A01
KBBF 160535Z AUTO 17010KT 3SM HZ CLR 20/08 A3024 RMK A01
KBBF 160515Z AUTO 17009KT 6SM HZ CLR 20/08 A3023 RMK A01
KBBF 160455Z AUTO 17008KT 6SM HZ CLR 20/08 A3023 RMK A01
KBBF 160435Z AUTO 16007KT 3SM HZ CLR 20/09 A3023 RMK A01
KBBF 160415Z AUTO VRB04KT 3SM HZ CLR 20/09 A3022 RMK A01
KBBF 160355Z AUTO VRB03KT 3SM HZ CLR 20/09 A3022 RMK A01
KBBF 160335Z AUTO 09008KT 3SM HZ CLR 20/08 A3021 RMK A01
KBBF 160315Z AUTO 09007KT 3SM HZ CLR 20/08 A3020 RMK A01
KBBF 160255Z AUTO 09005KT 3SM HZ FEW014 FEW026 20/07 A3020 RMK A01
KBBF 160235Z AUTO 19004KT 3SM HZ BKN014 BKN026 19/08 A3020 RMK A01
KBBF 160215Z AUTO 19006KT 3SM HZ BKN015 OVC020 19/08 A3019 RMK A01
KBBF 160155Z AUTO 20005KT 3SM HZ OVC020 19/07 A3018 RMK A01
KBBF 160135Z AUTO 21006KT 3SM HZ OVC020 19/07 A3017 RMK A01
KBBF 160115Z AUTO 22005KT 3SM HZ OVC023 19/07 A3016 RMK A01
KBBF 160055Z AUTO 22005KT 3SM HZ BKN025 18/06 A3016 RMK A01
KBBF 160035Z AUTO 00000KT 3SM HZ CLR 18/06 A3016 RMK A01
KBBF 160015Z AUTO 00000KT 3SM HZ CLR 19/06 A3015 RMK A01
KBBF 152355Z AUTO 00000KT 3SM HZ CLR 19/06 A3015 RMK A01
KBBF 152335Z AUTO 00000KT 4SM HZ CLR 19/06 A3015 RMK A01
KBBF 152315Z AUTO 00000KT 3SM HZ CLR 19/06 A3015 RMK A01
KBBF 152255Z AUTO 32003KT 3SM HZ CLR 18/05 A3015 RMK A01
KBBF 152235Z AUTO 00000KT 3SM HZ CLR 18/05 A3015 RMK A01
KBBF 152215Z AUTO 00000KT 3SM HZ CLR 18/05 A3016 RMK A01
KBBF 152155Z AUTO 33004KT 3SM HZ CLR 18/05 A3016 RMK A01
KBBF 152135Z AUTO 01007KT 3SM HZ CLR 18/05 A3016 RMK A01
KBBF 152115Z AUTO 02006KT 3SM HZ CLR 18/05 A3017 RMK A01
KBBF 152055Z AUTO 36007KT 3SM HZ CLR 18/05 A3018 RMK A01
KBBF 152035Z AUTO 35008KT 3SM HZ CLR 17/04 A3018 RMK A01
KBBF 152015Z AUTO 35008KT 3SM HZ CLR 17/05 A3020 RMK A01
KBBF 151955Z AUTO 35008KT 3SM HZ CLR 17/05 A3020 RMK A01
KBBF 151935Z AUTO 34009KT 3SM HZ CLR 17/04 A3022 RMK A01
KBBF 151915Z AUTO 34010KT 3SM HZ CLR 17/05 A3022 RMK A01
KBBF 151855Z AUTO 35012KT 3SM HZ CLR 17/05 A3022 RMK A01
KBBF 151835Z AUTO 36014KT 3SM HZ CLR 17/05 A3023 RMK A01
KBBF 151815Z AUTO 36013KT 3SM HZ CLR 17/04 A3023 RMK A01
KBBF 151755Z AUTO 36015G23KT 3SM HZ CLR 17/02 A3023 RMK A01
KBBF 151735Z AUTO 01020KT 3SM HZ CLR 17/01 A3023 RMK A01
KBBF 151715Z AUTO 01021G26KT 3SM HZ CLR 17/02 A3023 RMK A01
KBBF 151655Z AUTO 02022KT 3SM HZ CLR 17/03 A3022 RMK A01
KBBF 151635Z AUTO 01023KT 3SM HZ CLR 17/03 A3022 RMK A01
KBBF 151615Z AUTO 02022KT 3SM HZ CLR 18/03 A3021 RMK A01
KBBF 151555Z AUTO 02022KT 3SM HZ CLR 17/02 A3022 RMK A01
KBBF 151535Z AUTO 01019KT 3SM HZ CLR 18/02 A3023 RMK A01
KBBF 151515Z AUTO 01017KT 3SM HZ CLR 18/02 A3023 RMK A01
KBBF 151455Z AUTO 02016KT 3SM HZ CLR 18/00 A3022 RMK A01
KBBF 151435Z AUTO 01017KT 3SM HZ CLR 18/01 A3022 RMK A01
KBBF 151415Z AUTO 01017KT 3SM HZ CLR 19/00 A3021 RMK A01
KBBF 151355Z AUTO 02014KT 3SM HZ CLR 19/00 A3020 RMK A01
KBBF 151335Z AUTO 02017KT 3SM HZ CLR 19/00 A3020 RMK A01
KBBF 151315Z AUTO 01015KT 3SM HZ CLR 19/01 A3020 RMK A01
KBBF 151255Z AUTO 01015KT 3SM HZ CLR 19/01 A3018 RMK A01
KBBF 151235Z AUTO 01017KT 3SM HZ CLR 19/03 A3017 RMK A01
KBBF 151215Z AUTO 01015KT 4SM HZ CLR 19/01 A3016 RMK A01
KBBF 151155Z AUTO 36017KT 4SM HZ CLR 19/01 A3016 RMK A01
KBBF 151135Z AUTO 01013KT 4SM HZ CLR 19/01 A3014 RMK A01
KBBF 151115Z AUTO 36014KT 3SM HZ CLR 19/00 A3013 RMK A01
KBBF 151055Z AUTO 01015KT 3SM HZ CLR 19/01 A3012 RMK A01
KBBF 151035Z AUTO 36014KT 3SM HZ CLR 19/01 A3011 RMK A01
KBBF 151015Z AUTO 36014KT 4SM HZ CLR 19/02 A3011 RMK A01
KBBF 150955Z AUTO 01014KT 3SM HZ CLR 19/02 A3009 RMK A01
KBBF 150935Z AUTO 02012KT 3SM HZ CLR 19/02 A3009 RMK A01
KBBF 150915Z AUTO 01010KT 3SM HZ CLR 19/01 A3008 RMK A01
KBBF 150855Z AUTO 01013KT 3SM HZ CLR 19/01 A3009 RMK A01
KBBF 150835Z AUTO 02011KT 3SM HZ CLR 19/02 A3008 RMK A01
KBBF 150815Z AUTO 02014KT 4SM HZ CLR 19/01 A3008 RMK A01
KBBF 150755Z AUTO 02013KT 3SM HZ CLR 19/02 A3008 RMK A01
KBBF 150735Z AUTO 03017KT 3SM HZ CLR 19/01 A3007 RMK A01
KBBF 150715Z AUTO 03016KT 3SM HZ CLR 19/02 A3008 RMK A01
KBBF 150655Z AUTO 03017KT 4SM HZ CLR 19/02 A3008 RMK A01
KBBF 150635Z AUTO 03019KT 4SM HZ CLR 20/02 A3009 RMK A01
KBBF 150615Z AUTO 03019G24KT 3SM HZ CLR 20/03 A3009 RMK A01
KBBF 150555Z AUTO 02024KT CLR 20/01 A3008 RMK A01
KBBF 150535Z AUTO 02022KT 3SM HZ CLR 20/02 A3009 RMK A01
KBBF 150515Z AUTO 03022KT 3SM HZ CLR 20/05 A3008 RMK A01
KBBF 150455Z AUTO 02020KT 3SM HZ CLR 20/05 A3008 RMK A01
KBBF 150435Z AUTO 03017KT 3SM HZ CLR 20/05 A3008 RMK A01
KBBF 150415Z AUTO 01016KT 3SM HZ CLR 20/04 A3007 RMK A01
KBBF 150355Z AUTO 02017KT 4SM HZ CLR 20/05 A3007 RMK A01
KBBF 150335Z AUTO 01017G23KT 4SM HZ CLR 20/04 A3006 RMK A01
KBBF 150315Z AUTO 02019KT 4SM HZ CLR 20/05 A3005 RMK A01
KBBF 150255Z AUTO 01019G24KT 3SM HZ CLR 21/05 A3005 RMK A01
KBBF 150235Z AUTO 01023KT 4SM HZ CLR 20/04 A3004 RMK A01
KBBF 150215Z AUTO 02020KT 4SM HZ CLR 20/04 A3003 RMK A01
KBBF 150155Z AUTO 01021KT 4SM HZ CLR 20/03 A3003 RMK A01
KBBF 150135Z AUTO 01020KT 3SM HZ CLR 20/05 A3003 RMK A01
KBBF 150115Z AUTO 01022KT 4SM HZ CLR 20/04 A3002 RMK A01
KBBF 150055Z AUTO 02024KT 4SM HZ CLR 20/04 A3001 RMK A01
KBBF 150035Z AUTO 01026KT 3SM HZ CLR 20/03 A3000 RMK A01
KBBF 150015Z AUTO 36029KT 3SM HZ CLR 20/03 A3000 RMK A01
KBBF 142355Z AUTO 01030KT 4SM HZ CLR 21/03 A2999 RMK A01
KBBF 142335Z AUTO 36031KT 3SM HZ CLR 21/03 A2998 RMK A01
KBBF 142315Z AUTO 01030KT 3SM HZ CLR 21/03 A2998 RMK A01
KBBF 142255Z AUTO 36025KT 3SM HZ CLR 20/05 A2998 RMK A01
KBBF 142235Z AUTO 01025G32KT 3SM HZ CLR 20/03 A2998 RMK A01
KBBF 142215Z AUTO 36029KT 3SM HZ CLR 20/04 A2996 RMK A01
KBBF 142155Z AUTO 36027KT 3SM HZ CLR 20/05 A2996 RMK A01
KBBF 142135Z AUTO 01025G30KT 3SM HZ CLR 19/07 A2996 RMK A01
KBBF 142115Z AUTO 01026G31KT 4SM HZ CLR 19/05 A2996 RMK A01
KBBF 142055Z AUTO 01025KT 3SM HZ CLR 18/07 A2997 RMK A01
KBBF 142035Z AUTO 36028G33KT FEW120 18/06 A2997 RMK A01
KBBF 142015Z AUTO 36029G36KT 3SM HZ SCT120 18/05 A2997 RMK A01
KBBF 141955Z AUTO 01031G36KT 3SM HZ FEW120 17/05 A2997 RMK A01
KBBF 141935Z AUTO 01033KT 3SM HZ SCT110 17/06 A2996 RMK A01
KBBF 141915Z AUTO 01033G39KT 3SM HZ BKN110 16/05 A2997 RMK A01
KBBF 141855Z AUTO 36030G37KT 2 1/2SM HZ BKN110 16/07 A2998 RMK A01
KBBF 141835Z AUTO 02030KT 3SM HZ BKN100 16/07 A2997 RMK A01
KBBF 141815Z AUTO 01028G34KT 3SM HZ BKN100 16/06 A2997 RMK A01
KBBF 141755Z AUTO 02031G37KT 3SM HZ BKN100 17/07 A2997 RMK A01
KBBF 141735Z AUTO 01030G37KT 2 1/2SM HZ SCT100 17/07 A2996 RMK A01
KBBF 141715Z AUTO 01032G37KT 3SM HZ BKN100 17/07 A2997 RMK A01
KBBF 141655Z AUTO 02034G41KT 3SM HZ OVC095 17/07 A2996 RMK A01
KBBF 141635Z AUTO 36036KT 2 1/2SM HZ OVC090 17/09 A2997 RMK A01
KBBF 141615Z AUTO 36034KT 3SM HZ OVC085 18/09 A2993 RMK A01
KBBF 141555Z AUTO 01034G42KT 2 1/2SM HZ BKN080 17/09 A2990 RMK A01
KBBF 141535Z AUTO 01034G42KT 2 1/2SM HZ BKN085 17/09 A2989 RMK A01
KBBF 141515Z AUTO 01035G40KT 2 1/2SM HZ FEW090 17/10 A2990 RMK A01
KBBF 141455Z AUTO 02034G40KT 2 1/2SM HZ CLR 18/10 A2987 RMK A01
KBBF 141435Z AUTO 02030G39KT 3SM HZ FEW048 SCT085 BKN120 19/08 A2989 RMK A01
KBBF 141415Z AUTO 02041KT 2 1/2SM HZ FEW048 BKN060 OVC075 19/07 A2985 RMK A01
KBBF 141355Z AUTO 3SM HZ OVC060 19/08 A2992 RMK A01
KBBF 141335Z AUTO 03025G30KT 4SM HZ OVC055 20/10 A2989 RMK A01
KBBF 141315Z AUTO 03026KT OVC055 20/10 A2987 RMK A01
KBBF 141255Z AUTO 04024KT 4SM HZ OVC050 20/10 A2986 RMK A01
KBBF 141235Z AUTO 04029KT 3SM HZ OVC050 19/10 A2984 RMK A01
KBBF 141215Z AUTO 04023G32KT 4SM HZ OVC050 20/11 A2984 RMK A01
KBBF 141155Z AUTO 03028G33KT 4SM HZ OVC049 20/11 A2984 RMK A01
KBBF 141135Z AUTO 04029G34KT 4SM HZ OVC049 20/11 A2983 RMK A01
KBBF 141115Z AUTO 04029KT 4SM HZ OVC047 20/11 A2982 RMK A01
KBBF 141055Z AUTO 04030G36KT 4SM HZ OVC047 20/11 A2981 RMK A01
KBBF 141035Z AUTO 04031G36KT 4SM HZ BKN042 OVC049 20/11 A2980 RMK A01
KBBF 141015Z AUTO 04033G38KT 4SM HZ BKN043 OVC048 20/11 A2980 RMK A01
KBBF 140955Z AUTO 04031G37KT 3SM HZ SCT038 OVC050 19/13 A2978 RMK A01
KBBF 140935Z AUTO 03033G39KT 3SM HZ FEW021 SCT032 OVC038 18/15 A2978 RMK A01
KBBF 140915Z AUTO 02034G44KT 1 1/4SM HZ SCT006 BKN022 OVC030 18/15 A2980 RMK A01
KBBF 140855Z AUTO 02041G53KT 1/4SM HZ BKN005 OVC009 17/15 A2979 RMK A01
KBBF 140835Z AUTO 01031G48KT 1 1/2SM HZ BKN010 OVC026 20/17 A2978 RMK A01
KBBF 140815Z AUTO 20021KT 1 3/4SM HZ FEW015 OVC025 24/22 A2968 RMK A01
KBBF 140755Z AUTO 20023KT 1 3/4SM HZ FEW015 OVC024 24/22 A2967 RMK A01
KBBF 140735Z AUTO 20024G29KT 1 3/4SM HZ OVC022 24/22 A2967 RMK A01
KBBF 140715Z AUTO 20023KT 1 3/4SM BR OVC022 24/22 A2967 RMK A01
KBBF 140655Z AUTO 19023KT 1 3/4SM BR SCT015 OVC021 24/22 A2966 RMK A01
KBBF 140635Z AUTO 19024KT 1 3/4SM BR SCT013 OVC023 24/22 A2966 RMK A01
KBBF 140615Z AUTO 20022KT 1 3/4SM BR BKN014 OVC022 24/22 A2968 RMK A01
KBBF 140555Z AUTO 19020KT 1 3/4SM BR BKN014 OVC023 24/22 A2969 RMK A01
KBBF 140535Z AUTO 19022KT 2SM BR FEW016 OVC022 24/22 A2969 RMK A01
KBBF 140515Z AUTO 19022KT 2SM BR BKN016 OVC022 24/22 A2969 RMK A01
KBBF 140435Z AUTO 19022KT 1 3/4SM BR OVC014 24/22 A2969 RMK A01
KBBF 140415Z AUTO 18022KT 1 1/2SM BR OVC012 24/22 A2969 RMK A01
KBBF 140355Z AUTO 18019KT 1 1/2SM BR OVC012 24/22 A2970 RMK A01
KBBF 140335Z AUTO 19019KT 1 1/2SM BR OVC011 24/22 A2970 RMK A01
KBBF 140315Z AUTO 19020KT 1 1/2SM BR OVC011 24/22 A2969 RMK A01
KBBF 140255Z AUTO 18021KT 1 1/2SM BR OVC010 24/22 A2969 RMK A01
KBBF 140235Z AUTO 18025KT 1 1/4SM BR OVC010 24/22 A2967 RMK A01
KBBF 140215Z AUTO 18024KT 1 1/4SM BR OVC009 24/22 A2966 RMK A01
KBBF 140155Z AUTO 18026KT 1 1/4SM BR FEW003 OVC009 24/23 A2965 RMK A01
KBBF 140135Z AUTO 18026KT 1 1/4SM BR BKN006 BKN009 24/22 A2964 RMK A01
KBBF 140115Z AUTO 18026KT 1 1/4SM BR BKN007 OVC010 24/22 A2964 RMK A01
KBBF 140055Z AUTO 18023G29KT 1 1/4SM BR OVC009 24/22 A2965 RMK A01
KBBF 140035Z AUTO 18022KT 1 1/2SM BR OVC009 24/22 A2965 RMK A01
KBBF 140015Z AUTO 18022KT 1 1/2SM BR BKN010 24/22 A2965 RMK A01
KBBF 132355Z AUTO 18022KT 1 1/2SM BR BKN010 BKN014 24/22 A2965 RMK A01
KBBF 132335Z AUTO 19023KT 1 1/2SM BR BKN011 24/22 A2965 RMK A01
KBBF 132315Z AUTO 19022KT 1 3/4SM BR CLR 24/22 A2965 RMK A01
KBBF 132255Z AUTO 19022KT CLR 24/22 A2965 RMK A01
KBBF 132235Z AUTO 19023KT 1 3/4SM BR CLR 24/22 A2965 RMK A01
KBBF 132215Z AUTO 19025KT 1 3/4SM BR CLR 24/22 A2964 RMK A01
KBBF 132155Z AUTO 18026KT 1 1/2SM BR CLR 24/22 A2964 RMK A01
KBBF 132135Z AUTO 18025G30KT 1 3/4SM BR CLR 24/22 A2965 RMK A01
KBBF 132115Z AUTO 18025KT 1 3/4SM BR CLR 24/22 A2965 RMK A01
KBBF 132055Z AUTO 18026KT 1 3/4SM BR CLR 24/22 A2965 RMK A01
KBBF 132035Z AUTO 18026KT 1 3/4SM HZ SCT041 24/22 A2966 RMK A01
KBBF 132015Z AUTO 18025KT 1 3/4SM HZ OVC042 24/22 A2967 RMK A01
KBBF 131955Z AUTO 18025KT 2SM HZ OVC042 24/22 A2968 RMK A01
KBBF 131935Z AUTO 18023KT 1 3/4SM HZ OVC041 24/22 A2969 RMK A01
KBBF 131915Z AUTO 18023KT 1 3/4SM BR BKN041 24/22 A2969 RMK A01
KBBF 131855Z AUTO 18023KT 1 3/4SM BR SCT041 24/22 A2970 RMK A01
KBBF 131835Z AUTO 18023KT 1 3/4SM BR OVC040 24/22 A2971 RMK A01
KBBF 131815Z AUTO 18023KT 1 3/4SM BR OVC039 24/22 A2972 RMK A01
KBBF 131755Z AUTO 19023KT 1 3/4SM HZ SCT039 24/21 A2973 RMK A01
KBBF 131735Z AUTO 18024KT 2SM HZ CLR 24/21 A2974 RMK A01
KBBF 131715Z AUTO 18025KT 2SM HZ CLR 24/21 A2973 RMK A01
KBBF 131655Z AUTO 18025KT 2SM HZ FEW025 FEW033 24/21 A2974 RMK A01
KBBF 131635Z AUTO 18026KT 2SM HZ SCT028 SCT034 24/21 A2975 RMK A01
KBBF 131615Z AUTO 18026KT 2SM HZ BKN030 24/21 A2976 RMK A01
KBBF 131555Z AUTO 18026KT 2SM HZ FEW013 FEW022 SCT030 24/22 A2976 RMK A01
KBBF 131535Z AUTO 18024KT 2SM BR FEW014 SCT023 SCT029 24/22 A2977 RMK A01
KBBF 131515Z AUTO 19024KT 1 3/4SM BR BKN015 BKN022 BKN027 24/22 A2978 RMK A01
KBBF 131455Z AUTO 19024G29KT 2SM BR BKN015 SCT022 BKN027 24/22 A2978 RMK A01
KBBF 131435Z AUTO 19023KT 1 3/4SM BR BKN013 BKN025 24/22 A2978 RMK A01
KBBF 131415Z AUTO 19022KT 1 3/4SM BR BKN013 24/22 A2978 RMK A01
KBBF 131355Z AUTO 19024KT 2SM BR FEW013 FEW025 24/22 A2977 RMK A01
KBBF 131335Z AUTO 19024G29KT 2SM BR BKN014 BKN019 BKN025 24/22 A2977 RMK A01
KBBF 131315Z AUTO 18026KT 2SM BR BKN015 BKN019 BKN025 24/22 A2975 RMK A01
KBBF 131255Z AUTO 18024KT 1 3/4SM BR OVC014 24/22 A2975 RMK A01
KBBF 131235Z AUTO 18024KT 1 3/4SM BR 24/22 A2975 RMK A01
KBBF 131215Z AUTO 18025KT 2SM BR BKN010 OVC014 24/22 A2975 RMK A01
KBBF 131155Z AUTO 18024KT 1 3/4SM BR OVC012 24/22 A2975 RMK A01
KBBF 131135Z AUTO 18022KT 1 3/4SM BR OVC011 23/22 A2975 RMK A01
KBBF 131115Z AUTO 18021KT 1 3/4SM BR OVC010 24/22 A2975 RMK A01
KBBF 131055Z AUTO 18022KT 2SM BR OVC010 24/22 A2976 RMK A01
KBBF 131035Z AUTO 18020KT 1 3/4SM BR OVC011 23/22 A2976 RMK A01
KBBF 131015Z AUTO 18022KT 2SM BR OVC011 24/22 A2975 RMK A01
KBBF 130955Z AUTO 18023KT 2SM BR OVC013 24/22 A2976 RMK A01
KBBF 130935Z AUTO 18022KT 2SM BR BKN014 OVC020 23/22 A2976 RMK A01
KBBF 130915Z AUTO 18024KT 2SM BR FEW010 FEW013 SCT019 23/21 A2976 RMK A01
KBBF 130855Z AUTO 18025KT 2SM BR SCT010 BKN013 BKN020 23/21 A2976 RMK A01
KBBF 130835Z AUTO 18024G29KT 2SM BR FEW010 SCT022 23/21 A2977 RMK A01
KBBF 130815Z AUTO 19026KT 2SM BR SCT013 23/21 A2978 RMK A01
KBBF 130755Z AUTO 19027G33KT 2SM HZ BKN014 23/21 A2979 RMK A01
KBBF 130735Z AUTO 19027G34KT 2SM HZ SCT013 23/21 A2979 RMK A01
KBBF 130715Z AUTO 18032G38KT 2SM BR FEW014 23/21 A2978 RMK A01
KBBF 130655Z AUTO 17033G38KT 1 3/4SM BR CLR 23/21 A2977 RMK A01
KBBF 130635Z AUTO 17032G38KT 2SM BR CLR 23/21 A2979 RMK A01
KBBF 130615Z AUTO 17033KT 2SM BR CLR 23/21 A2979 RMK A01
KBBF 130555Z AUTO 17030KT 2SM BR FEW003 23/21 A2980 RMK A01
KBBF 130535Z AUTO 17028KT 2SM BR FEW003 23/21 A2981 RMK A01
KBBF 130515Z AUTO 17029KT 2SM BR CLR 23/21 A2981 RMK A01
KBBF 130455Z AUTO 17027KT 2SM BR CLR 23/21 A2982 RMK A01
KBBF 130435Z AUTO 17026KT 2SM BR CLR 23/21 A2983 RMK A01
KBBF 130415Z AUTO 17024KT 2SM HZ FEW004 23/21 A2985 RMK A01
KBBF 130355Z AUTO 17023KT 2SM HZ CLR 23/21 A2986 RMK A01
KBBF 130335Z AUTO 17022KT 2SM HZ CLR 23/21 A2986 RMK A01
KBBF 130315Z AUTO 17022KT 2SM HZ CLR 23/21 A2986 RMK A01
KBBF 130255Z AUTO 17022KT 2SM HZ CLR 23/21 A2986 RMK A01
KBBF 130235Z AUTO 17021KT 2 1/2SM HZ CLR 23/21 A2986 RMK A01
KBBF 130215Z AUTO 17020KT 2 1/2SM HZ CLR 23/20 A2985 RMK A01
KBBF 130155Z AUTO 17021KT 2 1/2SM HZ CLR 23/20 A2985 RMK A01
KBBF 130135Z AUTO 17019KT 2 1/2SM HZ CLR 23/20 A2985 RMK A01
KBBF 130115Z AUTO 18021KT 3SM HZ CLR 23/20 A2985 RMK A01
KBBF 130055Z AUTO 17023KT 2 1/2SM HZ CLR 23/20 A2985 RMK A01
KBBF 130035Z AUTO 17023KT 2 1/2SM HZ CLR 23/20 A2985 RMK A01
KBBF 130015Z AUTO 17022KT 3SM HZ CLR 23/20 A2985 RMK A01
KBBF 122355Z AUTO 17023KT 3SM HZ CLR 23/19 A2985 RMK A01
KBBF 122335Z AUTO 17021G27KT 3SM HZ CLR 23/19 A2986 RMK A01
KBBF 122315Z AUTO 17022KT 3SM HZ CLR 23/19 A2986 RMK A01
KBBF 122255Z AUTO 18021KT 3SM HZ CLR 23/19 A2986 RMK A01
KBBF 122235Z AUTO 18020KT 3SM HZ CLR 23/19 A2987 RMK A01
KBBF 122215Z AUTO 17020KT 3SM HZ CLR 23/19 A2987 RMK A01
KBBF 122155Z AUTO 18019KT 4SM HZ CLR 23/19 A2988 RMK A01
KBBF 122135Z AUTO 18020KT 4SM HZ CLR 23/19 A2988 RMK A01
KBBF 122115Z AUTO 18020KT 4SM HZ CLR 23/19 A2989 RMK A01
KBBF 122055Z AUTO 18020KT 4SM HZ CLR 23/19 A2990 RMK A01
KBBF 122035Z AUTO 18020KT 4SM HZ CLR 23/19 A2990 RMK A01
KBBF 122015Z AUTO 18020KT 4SM HZ CLR 23/19 A2991 RMK A01
KBBF 121955Z AUTO 18022KT 4SM HZ CLR 23/19 A2991 RMK A01
KBBF 121935Z AUTO 18024KT 4SM HZ CLR 23/19 A2992 RMK A01
KBBF 121915Z AUTO 18024KT 4SM HZ CLR 23/19 A2992 RMK A01
KBBF 121855Z AUTO 18023KT 4SM HZ CLR 23/19 A2994 RMK A01
KBBF 121835Z AUTO 18021KT 4SM HZ CLR 23/19 A2995 RMK A01
KBBF 121815Z AUTO 18022KT 4SM HZ CLR 23/19 A2995 RMK A01
KBBF 121755Z AUTO 18022KT 4SM HZ CLR 23/19 A2996 RMK A01
KBBF 121735Z AUTO 18024KT 4SM HZ CLR 23/18 A2996 RMK A01
KBBF 121715Z AUTO 18022KT 4SM HZ CLR 23/19 A2998 RMK A01
KBBF 121655Z AUTO 18022KT 5SM HZ CLR 23/18 A2998 RMK A01
KBBF 121635Z AUTO 18021KT 4SM HZ CLR 23/18 A2999 RMK A01
KBBF 121615Z AUTO 18023KT 4SM HZ CLR 23/18 A2999 RMK A01
KBBF 121555Z AUTO 19022KT 5SM HZ CLR 23/18 A3000 RMK A01
KBBF 121535Z AUTO 19020KT 5SM HZ CLR 23/18 A3000 RMK A01
KBBF 121515Z AUTO 19022KT 5SM HZ CLR 23/18 A2999 RMK A01
KBBF 121455Z AUTO 18022KT 5SM HZ CLR 23/18 A2999 RMK A01
KBBF 121435Z AUTO 19022KT 5SM HZ CLR 23/18 A2999 RMK A01
KBBF 121415Z AUTO 19023KT 5SM HZ CLR 23/17 A2998 RMK A01
KBBF 121355Z AUTO 19024KT 6SM HZ FEW022 23/17 A2998 RMK A01
KBBF 121335Z AUTO 19022KT 5SM HZ BKN022 22/17 A2998 RMK A01
KBBF 121315Z AUTO 19018KT 5SM HZ BKN024 23/18 A2998 RMK A01
KBBF 121255Z AUTO 19019KT 5SM HZ SCT024 22/17 A2998 RMK A01
KBBF 121235Z AUTO 19020KT 5SM HZ BKN024 22/17 A2998 RMK A01
KBBF 121215Z AUTO 19021KT 5SM HZ BKN025 22/17 A2997 RMK A01
KBBF 121155Z AUTO 19024KT 5SM HZ OVC024 22/17 A2997 RMK A01
KBBF 121135Z AUTO 19021KT 5SM HZ OVC024 22/17 A2997 RMK A01
KBBF 121115Z AUTO 19020KT 5SM HZ OVC023 22/17 A2997 RMK A01
KBBF 121055Z AUTO 19020G25KT 5SM HZ OVC023 22/17 A2997 RMK A01
KBBF 121035Z AUTO 19023KT 5SM HZ OVC024 22/17 A2997 RMK A01
KBBF 121015Z AUTO 19023KT 5SM HZ OVC023 22/17 A2998 RMK A01
KBBF 120955Z AUTO 20023KT 6SM HZ OVC024 22/17 A2998 RMK A01
KBBF 120935Z AUTO 20023KT 6SM HZ BKN024 BKN030 22/17 A2998 RMK A01
KBBF 120915Z AUTO 19025KT 5SM HZ BKN026 BKN030 22/17 A2998 RMK A01
KBBF 120855Z AUTO 20022KT 5SM HZ BKN024 OVC028 22/17 A3000 RMK A01
KBBF 120835Z AUTO 19023KT 5SM HZ OVC024 22/17 A3000 RMK A01
KBBF 120815Z AUTO 19022KT 6SM HZ OVC023 22/17 A3001 RMK A01
KBBF 120755Z AUTO 19022KT 5SM HZ OVC022 22/17 A3002 RMK A01
KBBF 120735Z AUTO 19023KT 6SM HZ OVC021 22/17 A3002 RMK A01
KBBF 120715Z AUTO 19022KT 6SM HZ OVC022 22/17 A3003 RMK A01
KBBF 120655Z AUTO 19021KT 7SM OVC021 22/17 A3004 RMK A01
KBBF 120635Z AUTO 19019KT 7SM OVC021 22/17 A3005 RMK A01
KBBF 120615Z AUTO 18018KT 7SM OVC021 22/17 A3005 RMK A01
KBBF 120555Z AUTO 18019KT 7SM OVC022 22/17 A3006 RMK A01
KBBF 120535Z AUTO 18018KT 7SM OVC022 22/16 A3006 RMK A01
KBBF 120515Z AUTO 18015KT 7SM OVC022 22/17 A3007 RMK A01
KBBF 120455Z AUTO 17015KT 7SM OVC022 22/16 A3007 RMK A01
KBBF 120435Z AUTO 17015KT 7SM OVC022 22/16 A3008 RMK A01
KBBF 120415Z AUTO 17013KT 7SM OVC022 22/16 A3008 RMK A01
KBBF 120355Z AUTO 17015KT 8SM OVC022 22/16 A3008 RMK A01
KBBF 120335Z AUTO 17015KT 7SM BKN022 OVC026 22/16 A3009 RMK A01
KBBF 120315Z AUTO 17014KT 8SM OVC024 22/16 A3009 RMK A01
KBBF 120255Z AUTO 17011KT 8SM OVC023 22/16 A3009 RMK A01
KBBF 120235Z AUTO 17014KT 8SM OVC023 22/16 A3008 RMK A01
KBBF 120215Z AUTO 17014KT 7SM OVC024 22/16 A3007 RMK A01
KBBF 120155Z AUTO 17014KT 8SM OVC023 22/16 A3007 RMK A01
KBBF 120135Z AUTO 17013KT 8SM BKN023 OVC027 22/16 A3007 RMK A01
KBBF 120115Z AUTO 18015KT 8SM OVC026 22/16 A3007 RMK A01
KBBF 120055Z AUTO 17014KT 7SM BKN028 22/16 A3008 RMK A01
KBBF 120035Z AUTO 17014KT 8SM BKN028 22/16 A3008 RMK A01
KBBF 120015Z AUTO 17013KT 8SM FEW029 22/16 A3009 RMK A01
KBBF 112355Z AUTO 17013KT 8SM CLR 22/15 A3009 RMK A01
KBBF 112335Z AUTO 17011KT 9SM CLR 22/16 A3009 RMK A01
KBBF 112315Z AUTO 17013KT 9SM CLR 22/15 A3010 RMK A01
KBBF 112255Z AUTO 17010KT 9SM CLR 23/14 A3011 RMK A01
KBBF 112235Z AUTO 17011KT 9SM CLR 23/14 A3012 RMK A01
KBBF 112215Z AUTO 16011KT 9SM CLR 22/14 A3012 RMK A01
KBBF 112155Z AUTO 16012KT 9SM CLR 22/14 A3013 RMK A01
KBBF 112135Z AUTO 17012KT 9SM CLR 22/14 A3014 RMK A01
KBBF 112115Z AUTO 17012KT 9SM CLR 22/14 A3014 RMK A01
KBBF 112055Z AUTO 17012KT 9SM CLR 22/14 A3015 RMK A01
KBBF 112035Z AUTO 17012KT 10SM CLR 22/14 A3015 RMK A01
KBBF 112015Z AUTO 16012KT 9SM CLR 22/14 A3016 RMK A01
KBBF 111955Z AUTO 16011KT 9SM CLR 22/14 A3017 RMK A01
KBBF 111935Z AUTO 16012KT 8SM CLR 22/14 A3018 RMK A01
KBBF 111915Z AUTO 17011KT 9SM CLR 22/13 A3019 RMK A01
KBBF 111855Z AUTO 16013KT 9SM CLR 22/14 A3019 RMK A01
KBBF 111835Z AUTO 15012KT 8SM CLR 22/15 A3020 RMK A01
KBBF 111815Z AUTO 15011KT 9SM CLR 22/15 A3020 RMK A01
KBBF 111755Z AUTO 15008KT 9SM CLR 22/15 A3021 RMK A01
KBBF 111735Z AUTO 15011KT 9SM CLR 22/14 A3022 RMK A01
KBBF 111715Z AUTO 15008G14KT 090V180 9SM CLR 22/14 A3022 RMK A01
KBBF 111655Z AUTO 15012KT 9SM CLR 22/14 A3022 RMK A01
KBBF 111635Z AUTO VRB06KT 9SM CLR 23/14 A3022 RMK A01
KBBF 111615Z AUTO VRB06G12KT 9SM CLR 23/14 A3022 RMK A01
KBBF 111555Z AUTO VRB06G12KT 9SM CLR 23/14 A3022 RMK A01
KBBF 111535Z AUTO 11009KT 9SM CLR 23/13 A3022 RMK A01
KBBF 111515Z AUTO 11008KT 9SM CLR 22/13 A3021 RMK A01
KBBF 111455Z AUTO 10010KT 10SM CLR 22/13 A3021 RMK A01
KBBF 111435Z AUTO 10013KT 10SM CLR 22/13 A3020 RMK A01
KBBF 111415Z AUTO 10012KT 10SM CLR 22/13 A3020 RMK A01
KBBF 111355Z AUTO 10013KT 9SM CLR 21/13 A3020 RMK A01
KBBF 111335Z AUTO 10012KT 9SM CLR 22/13 A3020 RMK A01
KBBF 111315Z AUTO 10009KT 9SM CLR 21/13 A3021 RMK A01
KBBF 111255Z AUTO 08012KT 9SM CLR 21/15 A3020 RMK A01
KBBF 111235Z AUTO 08012KT 9SM CLR 21/14 A3020 RMK A01
KBBF 111215Z AUTO 08010KT 9SM CLR 21/14 A3020 RMK A01
KBBF 111155Z AUTO 07010KT 9SM SCT037 21/14 A3020 RMK A01
KBBF 111135Z AUTO 07009KT 9SM OVC039 21/14 A3020 RMK A01
KBBF 111115Z AUTO 08008KT 9SM OVC042 21/14 A3020 RMK A01
KBBF 111055Z AUTO 06010KT 9SM BKN043 21/14 A3020 RMK A01
KBBF 111035Z AUTO 07007KT 10SM FEW035 SCT043 21/14 A3020 RMK A01
KBBF 111015Z AUTO 06008KT 9SM CLR 21/14 A3020 RMK A01
KBBF 110955Z AUTO 06007KT 9SM CLR 21/13 A3019 RMK A01
KBBF 110935Z AUTO 06008KT 9SM CLR 21/13 A3019 RMK A01
KBBF 110915Z AUTO 05008KT 9SM CLR 21/14 A3020 RMK A01
KBBF 110855Z AUTO 05007KT 9SM CLR 21/14 A3020 RMK A01
KBBF 110835Z AUTO 06006KT 9SM CLR 21/13 A3020 RMK A01
KBBF 110815Z AUTO 07006KT 9SM CLR 21/13 A3020 RMK A01
KBBF 110755Z AUTO 06006KT 10SM CLR 21/13 A3020 RMK A01
KBBF 110735Z AUTO 07007KT 9SM CLR 21/13 A3020 RMK A01
KBBF 110715Z AUTO 07005KT 9SM CLR 21/13 A3020 RMK A01
KBBF 110655Z AUTO 07004KT 9SM CLR 21/13 A3021 RMK A01
KBBF 110635Z AUTO 08005KT 9SM CLR 21/13 A3020 RMK A01
KBBF 110615Z AUTO 08005KT 10SM CLR 21/13 A3021 RMK A01
KBBF 110555Z AUTO 08005KT 9SM CLR 21/13 A3021 RMK A01
KBBF 110535Z AUTO 08007KT 9SM CLR 21/13 A3021 RMK A01
KBBF 110515Z AUTO 09008KT 10SM CLR 21/12 A3022 RMK A01
KBBF 110455Z AUTO 09008KT 10SM CLR 21/12 A3023 RMK A01
KBBF 110255Z AUTO 11010KT 9SM CLR 21/11 A3023 RMK A01
KBBF 110235Z AUTO 11010KT 9SM CLR 21/12 A3021 RMK A01
KBBF 110215Z AUTO 11009KT 9SM CLR 22/11 A3021 RMK A01
KBBF 110155Z AUTO 11008G13KT 080V150 10SM CLR 21/11 A3021 RMK A01
KBBF 110135Z AUTO 11010G15KT 9SM CLR 21/11 A3020 RMK A01
KBBF 110115Z AUTO 10011G16KT 9SM CLR 21/11 A3019 RMK A01
KBBF 110055Z AUTO 10012KT 9SM CLR 21/11 A3019 RMK A01
KBBF 110035Z AUTO 10015KT 9SM CLR 21/11 A3019 RMK A01
KBBF 110015Z AUTO 10013G19KT 9SM CLR 21/11 A3018 RMK A01
KBBF 102355Z AUTO 09016KT 9SM CLR 21/11 A3017 RMK A01
KBBF 102335Z AUTO 10015KT 9SM CLR 21/10 A3017 RMK A01
KBBF 102315Z AUTO 09018KT 9SM CLR 21/10 A3016 RMK A01
KBBF 102255Z AUTO 09019KT 9SM CLR 20/10 A3016 RMK A01
KBBF 102235Z AUTO 09017KT 9SM CLR 20/11 A3016 RMK A01
KBBF 102215Z AUTO 09018KT 9SM CLR 20/11 A3017 RMK A01
KBBF 102155Z AUTO 08018KT 9SM CLR 20/10 A3018 RMK A01
KBBF 102135Z AUTO 07018KT 9SM CLR 20/10 A3019 RMK A01
KBBF 102115Z AUTO 07018G23KT 9SM CLR 20/10 A3019 RMK A01
KBBF 102055Z AUTO 07022KT 9SM CLR 20/10 A3020 RMK A01
KBBF 102035Z AUTO 06020KT 8SM CLR 20/11 A3022 RMK A01
KBBF 102015Z AUTO 06021G26KT CLR 20/11 A3023 RMK A01
KBBF 101955Z AUTO 06022KT 9SM CLR 20/11 A3024 RMK A01
KBBF 101935Z AUTO 06021KT 9SM CLR 20/11 A3024 RMK A01
KBBF 101915Z AUTO 06020KT 8SM CLR 20/11 A3025 RMK A01
KBBF 101855Z AUTO 05021G27KT 9SM CLR 20/11 A3025 RMK A01
KBBF 101835Z AUTO 06020KT 9SM CLR 20/10 A3026 RMK A01
KBBF 101815Z AUTO 06020KT 9SM CLR 20/10 A3026 RMK A01
KBBF 101755Z AUTO 06020G25KT 9SM CLR 20/10 A3027 RMK A01
KBBF 101735Z AUTO 06018KT 8SM CLR 20/11 A3027 RMK A01
KBBF 101715Z AUTO 05020KT 9SM CLR 20/11 A3027 RMK A01
KBBF 101655Z AUTO 06019KT 9SM CLR 20/11 A3027 RMK A01
KBBF 101635Z AUTO 05017KT 9SM CLR 20/12 A3026 RMK A01
KBBF 101615Z AUTO 06018KT 9SM CLR 20/11 A3025 RMK A01
KBBF 101555Z AUTO 06022KT 8SM CLR 20/11 A3024 RMK A01
KBBF 101535Z AUTO 06022KT 8SM CLR 20/11 A3023 RMK A01
KBBF 101515Z AUTO 06025G31KT 9SM CLR 20/09 A3022 RMK A01
KBBF 101455Z AUTO 07027KT 10SM CLR 20/09 A3021 RMK A01
KBBF 101435Z AUTO 06028KT 9SM CLR 20/10 A3021 RMK A01
KBBF 101415Z AUTO 06024G29KT 9SM CLR 20/11 A3020 RMK A01
KBBF 101355Z AUTO 07026KT 8SM CLR 20/12 A3020 RMK A01
KBBF 101335Z AUTO 05024G30KT 8SM FEW026 20/12 A3019 RMK A01
KBBF 101315Z AUTO 06025G31KT 6SM HZ FEW021 BKN027 20/14 A3018 RMK A01
KBBF 101255Z AUTO 05027KT 6SM HZ SCT022 OVC027 19/14 A3017 RMK A01
KBBF 101235Z AUTO 05025KT 7SM SCT022 SCT028 BKN055 20/14 A3017 RMK A01
KBBF 101215Z AUTO 06025KT 7SM OVC055 20/13 A3017 RMK A01
KBBF 101155Z AUTO 05025KT 7SM OVC050 19/14 A3016 RMK A01
KBBF 101135Z AUTO 06025KT 6SM HZ OVC049 19/14 A3015 RMK A01
KBBF 101115Z AUTO 05025KT 5SM HZ SCT019 SCT024 OVC046 19/15 A3015 RMK A01
KBBF 101055Z AUTO 04023G29KT 3SM HZ BKN020 BKN024 OVC042 19/15 A3014 RMK A01
KBBF 101035Z AUTO 04028KT 6SM HZ FEW021 OVC040 20/15 A3013 RMK A01
KBBF 101015Z AUTO 05025KT 5SM HZ SCT018 OVC040 20/15 A3012 RMK A01
KBBF 100955Z AUTO 04027KT 5SM HZ FEW015 SCT019 OVC039 20/16 A3012 RMK A01
KBBF 100935Z AUTO 04023KT 5SM HZ SCT018 OVC038 20/16 A3012 RMK A01
KBBF 100915Z AUTO 04027KT 5SM HZ FEW019 OVC036 20/16 A3011 RMK A01
KBBF 100855Z AUTO 05026KT 5SM HZ OVC034 20/16 A3011 RMK A01
KBBF 100835Z AUTO 06025KT 5SM HZ FEW018 OVC031 20/16 A3011 RMK A01
KBBF 100815Z AUTO 06024KT 5SM HZ BKN019 OVC031 20/16 A3012 RMK A01
KBBF 091550Z AUTO 07012KT 7SM FEW024 BKN030 OVC046 22/20 A2991 RMK A01
KBBF 091535Z AUTO 07011KT 7SM FEW027 OVC045 22/20 A2991 RMK A01
KBBF 091515Z AUTO 08012KT 7SM FEW028 OVC045 22/20 A2990 RMK A01
KBBF 091455Z AUTO 08013KT 7SM OVC043 22/20 A2990 RMK A01
KBBF 091435Z AUTO 08011KT 8SM OVC041 22/20 A2989 RMK A01
KBBF 091415Z AUTO 09013KT 8SM SCT016 SCT024 OVC041 22/20 A2988 RMK A01
KBBF 091355Z AUTO 09010KT 7SM BKN016 OVC025 22/20 A2988 RMK A01
KBBF 091335Z AUTO 08010KT 7SM BKN026 BKN030 OVC038 22/20 A2987 RMK A01
KBBF 091315Z AUTO 08011KT 9SM BKN028 OVC039 22/20 A2986 RMK A01
KBBF 091255Z AUTO 09012KT 9SM BKN026 OVC041 22/20 A2985 RMK A01
KBBF 091235Z AUTO 09011KT 9SM BKN027 BKN036 OVC041 21/19 A2984 RMK A01
KBBF 091215Z AUTO 09012KT 9SM SCT027 OVC039 22/19 A2983 RMK A01
KBBF 091155Z AUTO 10010KT 8SM FEW028 OVC042 21/19 A2982 RMK A01
KBBF 091135Z AUTO 11010KT 8SM FEW027 OVC043 21/19 A2981 RMK A01
KBBF 091115Z AUTO 09012KT 8SM SCT029 OVC043 21/19 A2981 RMK A01
KBBF 091055Z AUTO 09011KT 8SM BKN030 OVC043 21/19 A2981 RMK A01
KBBF 091035Z AUTO 09011KT 8SM SCT030 OVC041 21/19 A2981 RMK A01
KBBF 091015Z AUTO 08009KT 9SM SCT030 OVC037 21/19 A2981 RMK A01
KBBF 090955Z AUTO 08008KT 8SM OVC032 21/19 A2980 RMK A01
KBBF 090935Z AUTO 06008KT 8SM OVC031 21/19 A2980 RMK A01
KBBF 090915Z AUTO 06007KT 8SM OVC031 21/19 A2980 RMK A01
KBBF 090855Z AUTO 08007KT 8SM OVC030 21/19 A2979 RMK A01
KBBF 090835Z AUTO 09005KT 8SM OVC027 21/19 A2980 RMK A01
KBBF 090815Z AUTO 09004KT 7SM FEW010 SCT018 OVC026 21/19 A2981 RMK A01
KBBF 090755Z AUTO 18007KT 3SM BR BKN011 OVC018 21/19 A2982 RMK A01
KBBF 090735Z AUTO 00000KT 3SM HZ BKN010 OVC015 21/19 A2982 RMK A01
KBBF 090715Z AUTO 17010KT 2SM HZ OVC015 21/18 A2982 RMK A01
KBBF 090655Z AUTO 16008KT 9SM BKN016 OVC021 21/18 A2982 RMK A01
KBBF 090635Z AUTO 17006KT 10SM BKN016 OVC024 21/18 A2982 RMK A01
KBBF 090615Z AUTO 15005KT 10SM BKN017 OVC027 21/18 A2982 RMK A01
KBBF 090555Z AUTO 17007KT 10SM BKN017 OVC026 21/18 A2982 RMK A01
KBBF 090535Z AUTO 09004KT 10SM BKN019 OVC029 20/18 A2982 RMK A01
KBBF 090515Z AUTO 09005KT 10SM FEW018 BKN030 OVC043 20/17 A2982 RMK A01
KBBF 090455Z AUTO 09005KT 10SM FEW028 SCT032 OVC042 20/17 A2982 RMK A01
KBBF 090435Z AUTO 09005KT 10SM SCT021 BKN031 OVC038 20/17 A2982 RMK A01
KBBF 090415Z AUTO 10004KT 10SM BKN022 OVC040 20/17 A2982 RMK A01
KBBF 090355Z AUTO VRB04KT 10SM OVC022 20/17 A2982 RMK A01
KBBF 090335Z AUTO VRB04KT 10SM BKN014 OVC022 20/17 A2983 RMK A01
KBBF 090315Z AUTO 00000KT 10SM OVC014 19/16 A2983 RMK A01
KBBF 090255Z AUTO 00000KT 10SM OVC016 19/16 A2983 RMK A01
KBBF 090235Z AUTO 10004KT 10SM OVC018 19/16 A2983 RMK A01
KBBF 090215Z AUTO 09005KT 10SM OVC020 19/16 A2982 RMK A01
KBBF 090155Z AUTO 09005KT 10SM FEW011 OVC021 19/16 A2982 RMK A01
KBBF 090135Z AUTO 11005KT 9SM BKN011 OVC020 18/16 A2981 RMK A01
KBBF 090115Z AUTO 10004KT 9SM OVC010 18/15 A2981 RMK A01
KBBF 090055Z AUTO 10003KT 9SM BKN011 OVC025 18/15 A2981 RMK A01
KBBF 090035Z AUTO 10006KT 9SM BKN010 OVC026 18/15 A2981 RMK A01
KBBF 090015Z AUTO 09006KT 9SM BKN011 BKN025 18/15 A2980 RMK A01
KBBF 082355Z AUTO 08008KT 8SM OVC011 17/15 A2980 RMK A01
KBBF 082335Z AUTO 08008KT 8SM OVC011 17/14 A2980 RMK A01
KBBF 082315Z AUTO 08007KT 8SM OVC011 17/14 A2981 RMK A01
KBBF 082255Z AUTO 6/36000006KT 8SM SCT010 OVC015 17/14 A2981 RMK A01
KBBF 082235Z AUTO 06006KT 8SM BKN010 OVC015 17/14 A2982 RMK A01
KBBF 082215Z AUTO 07007KT 9SM OVC010 16/14 A2982 RMK A01
KBBF 082155Z AUTO 05006KT 9SM OVC010 16/14 A2984 RMK A01
KBBF 082135Z AUTO 04005KT 8SM OVC010 16/13 A2984 RMK A01
KBBF 082115Z AUTO 05005KT 9SM OVC010 16/13 A2985 RMK A01
KBBF 082055Z AUTO 06004KT 9SM OVC009 16/13 A2986 RMK A01
KBBF 082035Z AUTO 02005KT 9SM OVC009 16/13 A2987 RMK A01
KBBF 082015Z AUTO 05006KT 9SM OVC009 16/13 A2987 RMK A01
KBBF 081955Z AUTO 05005KT 9SM OVC009 16/13 A2988 RMK A01
KBBF 081935Z AUTO 05006KT 9SM OVC009 16/13 A2988 RMK A01
KBBF 081915Z AUTO 04007KT 9SM OVC009 16/13 A2988 RMK A01